<?xml version="1.0" encoding="UTF-8" standalone="no" ?>
<gpx xmlns="http://www.topografix.com/GPX/1/1" xmlns:xsi="http://www.w3.org/2001/XMLSchema-instance" xsi:schemaLocation="http://www.topografix.com/GPX/1/1 http://www.topografix.com/GPX/1/1/gpx.xsd" version="1.1" creator="VisuGPX - https://www.visugpx.com">
  <metadata>
    <name>Rando à Estaing</name>
    <desc><![CDATA[Plus beaux villages de Frances......]]></desc>
  </metadata>
  <trk>
    <name><![CDATA[Rando à Estaing_1]]></name>
    <trkseg>
      <trkpt lat="44.55286" lon="2.67429">
        <ele>308</ele>
        <time>2022-04-25T08:28:56Z</time>
      </trkpt>
      <trkpt lat="44.55297" lon="2.67426">
        <ele>307.4</ele>
        <time>2022-04-25T08:29:10Z</time>
      </trkpt>
      <trkpt lat="44.55299" lon="2.67423">
        <ele>307.8</ele>
        <time>2022-04-25T08:29:14Z</time>
      </trkpt>
      <trkpt lat="44.55299" lon="2.67422">
        <ele>308.8</ele>
        <time>2022-04-25T08:29:19Z</time>
      </trkpt>
      <trkpt lat="44.55301" lon="2.6742">
        <ele>307.4</ele>
        <time>2022-04-25T08:29:32Z</time>
      </trkpt>
      <trkpt lat="44.55307" lon="2.67412">
        <ele>308</ele>
        <time>2022-04-25T08:29:40Z</time>
      </trkpt>
      <trkpt lat="44.55308" lon="2.67411">
        <ele>308.2</ele>
        <time>2022-04-25T08:29:42Z</time>
      </trkpt>
      <trkpt lat="44.55309" lon="2.67411">
        <ele>308.2</ele>
        <time>2022-04-25T08:29:48Z</time>
      </trkpt>
      <trkpt lat="44.55311" lon="2.6741">
        <ele>308.4</ele>
        <time>2022-04-25T08:30:04Z</time>
      </trkpt>
      <trkpt lat="44.55316" lon="2.67408">
        <ele>309</ele>
        <time>2022-04-25T08:30:10Z</time>
      </trkpt>
      <trkpt lat="44.55319" lon="2.67405">
        <ele>309</ele>
        <time>2022-04-25T08:30:15Z</time>
      </trkpt>
      <trkpt lat="44.55322" lon="2.67401">
        <ele>308.6</ele>
        <time>2022-04-25T08:30:20Z</time>
      </trkpt>
      <trkpt lat="44.55324" lon="2.67393">
        <ele>308.4</ele>
        <time>2022-04-25T08:30:26Z</time>
      </trkpt>
      <trkpt lat="44.55324" lon="2.6739">
        <ele>308.2</ele>
        <time>2022-04-25T08:30:29Z</time>
      </trkpt>
      <trkpt lat="44.55323" lon="2.67389">
        <ele>308.4</ele>
        <time>2022-04-25T08:30:35Z</time>
      </trkpt>
      <trkpt lat="44.55324" lon="2.67389">
        <ele>308</ele>
        <time>2022-04-25T08:30:45Z</time>
      </trkpt>
      <trkpt lat="44.55325" lon="2.67388">
        <ele>308</ele>
        <time>2022-04-25T08:30:50Z</time>
      </trkpt>
      <trkpt lat="44.55327" lon="2.67389">
        <ele>308.2</ele>
        <time>2022-04-25T08:31:05Z</time>
      </trkpt>
      <trkpt lat="44.55327" lon="2.6739">
        <ele>308.6</ele>
        <time>2022-04-25T08:31:20Z</time>
      </trkpt>
      <trkpt lat="44.55323" lon="2.67386">
        <ele>308</ele>
        <time>2022-04-25T08:31:31Z</time>
      </trkpt>
      <trkpt lat="44.55323" lon="2.67388">
        <ele>308.2</ele>
        <time>2022-04-25T08:31:42Z</time>
      </trkpt>
      <trkpt lat="44.55326" lon="2.67389">
        <ele>308</ele>
        <time>2022-04-25T08:31:59Z</time>
      </trkpt>
      <trkpt lat="44.55327" lon="2.67384">
        <ele>308.2</ele>
        <time>2022-04-25T08:32:09Z</time>
      </trkpt>
      <trkpt lat="44.55328" lon="2.67377">
        <ele>308.2</ele>
        <time>2022-04-25T08:32:16Z</time>
      </trkpt>
      <trkpt lat="44.55329" lon="2.67376">
        <ele>308</ele>
        <time>2022-04-25T08:32:22Z</time>
      </trkpt>
      <trkpt lat="44.5533" lon="2.67369">
        <ele>308</ele>
        <time>2022-04-25T08:32:32Z</time>
      </trkpt>
      <trkpt lat="44.5533" lon="2.67375">
        <ele>308.2</ele>
        <time>2022-04-25T08:32:37Z</time>
      </trkpt>
      <trkpt lat="44.55328" lon="2.67393">
        <ele>308.2</ele>
        <time>2022-04-25T08:32:47Z</time>
      </trkpt>
      <trkpt lat="44.55326" lon="2.67396">
        <ele>308.2</ele>
        <time>2022-04-25T08:32:49Z</time>
      </trkpt>
      <trkpt lat="44.55324" lon="2.67399">
        <ele>308.4</ele>
        <time>2022-04-25T08:32:52Z</time>
      </trkpt>
      <trkpt lat="44.55323" lon="2.674">
        <ele>308.4</ele>
        <time>2022-04-25T08:32:53Z</time>
      </trkpt>
      <trkpt lat="44.55322" lon="2.67401">
        <ele>309</ele>
        <time>2022-04-25T08:32:54Z</time>
      </trkpt>
      <trkpt lat="44.55318" lon="2.67407">
        <ele>309</ele>
        <time>2022-04-25T08:32:58Z</time>
      </trkpt>
      <trkpt lat="44.55308" lon="2.6742">
        <ele>308.6</ele>
        <time>2022-04-25T08:33:07Z</time>
      </trkpt>
      <trkpt lat="44.55297" lon="2.6743">
        <ele>307.8</ele>
        <time>2022-04-25T08:33:17Z</time>
      </trkpt>
      <trkpt lat="44.55296" lon="2.67431">
        <ele>307.6</ele>
        <time>2022-04-25T08:33:18Z</time>
      </trkpt>
      <trkpt lat="44.55293" lon="2.6743">
        <ele>308</ele>
        <time>2022-04-25T08:33:22Z</time>
      </trkpt>
      <trkpt lat="44.55293" lon="2.6743">
        <ele>308.2</ele>
        <time>2022-04-25T08:33:23Z</time>
      </trkpt>
      <trkpt lat="44.55294" lon="2.6743">
        <ele>308.4</ele>
        <time>2022-04-25T08:33:25Z</time>
      </trkpt>
      <trkpt lat="44.55296" lon="2.67427">
        <ele>308.4</ele>
        <time>2022-04-25T08:33:29Z</time>
      </trkpt>
      <trkpt lat="44.55298" lon="2.67425">
        <ele>308.6</ele>
        <time>2022-04-25T08:33:31Z</time>
      </trkpt>
      <trkpt lat="44.55307" lon="2.67413">
        <ele>307.8</ele>
        <time>2022-04-25T08:33:42Z</time>
      </trkpt>
      <trkpt lat="44.55316" lon="2.67402">
        <ele>308.6</ele>
        <time>2022-04-25T08:33:51Z</time>
      </trkpt>
      <trkpt lat="44.55326" lon="2.67391">
        <ele>308</ele>
        <time>2022-04-25T08:34:00Z</time>
      </trkpt>
      <trkpt lat="44.55327" lon="2.67388">
        <ele>308</ele>
        <time>2022-04-25T08:34:02Z</time>
      </trkpt>
      <trkpt lat="44.55327" lon="2.67381">
        <ele>308.2</ele>
        <time>2022-04-25T08:34:06Z</time>
      </trkpt>
      <trkpt lat="44.55332" lon="2.67371">
        <ele>308.2</ele>
        <time>2022-04-25T08:34:12Z</time>
      </trkpt>
      <trkpt lat="44.55333" lon="2.6737">
        <ele>308</ele>
        <time>2022-04-25T08:34:13Z</time>
      </trkpt>
      <trkpt lat="44.55335" lon="2.67367">
        <ele>307.8</ele>
        <time>2022-04-25T08:34:16Z</time>
      </trkpt>
      <trkpt lat="44.55335" lon="2.67365">
        <ele>307.8</ele>
        <time>2022-04-25T08:34:18Z</time>
      </trkpt>
      <trkpt lat="44.55335" lon="2.67363">
        <ele>308</ele>
        <time>2022-04-25T08:34:20Z</time>
      </trkpt>
      <trkpt lat="44.55337" lon="2.6735">
        <ele>307.8</ele>
        <time>2022-04-25T08:34:27Z</time>
      </trkpt>
      <trkpt lat="44.55339" lon="2.67331">
        <ele>307.8</ele>
        <time>2022-04-25T08:34:40Z</time>
      </trkpt>
      <trkpt lat="44.5534" lon="2.67318">
        <ele>308.2</ele>
        <time>2022-04-25T08:34:50Z</time>
      </trkpt>
      <trkpt lat="44.55347" lon="2.67311">
        <ele>308.6</ele>
        <time>2022-04-25T08:34:59Z</time>
      </trkpt>
      <trkpt lat="44.55348" lon="2.6731">
        <ele>308.8</ele>
        <time>2022-04-25T08:35:01Z</time>
      </trkpt>
      <trkpt lat="44.55348" lon="2.67308">
        <ele>309.4</ele>
        <time>2022-04-25T08:35:05Z</time>
      </trkpt>
      <trkpt lat="44.55348" lon="2.67306">
        <ele>309.8</ele>
        <time>2022-04-25T08:35:08Z</time>
      </trkpt>
      <trkpt lat="44.5535" lon="2.673">
        <ele>310.8</ele>
        <time>2022-04-25T08:35:13Z</time>
      </trkpt>
      <trkpt lat="44.55353" lon="2.67292">
        <ele>311</ele>
        <time>2022-04-25T08:35:22Z</time>
      </trkpt>
      <trkpt lat="44.55354" lon="2.6729">
        <ele>311.2</ele>
        <time>2022-04-25T08:35:30Z</time>
      </trkpt>
      <trkpt lat="44.55356" lon="2.67279">
        <ele>312</ele>
        <time>2022-04-25T08:35:42Z</time>
      </trkpt>
      <trkpt lat="44.55357" lon="2.67278">
        <ele>312</ele>
        <time>2022-04-25T08:35:43Z</time>
      </trkpt>
      <trkpt lat="44.55359" lon="2.67256">
        <ele>312</ele>
        <time>2022-04-25T08:35:58Z</time>
      </trkpt>
      <trkpt lat="44.55365" lon="2.67232">
        <ele>311.2</ele>
        <time>2022-04-25T08:36:15Z</time>
      </trkpt>
      <trkpt lat="44.5537" lon="2.67226">
        <ele>311</ele>
        <time>2022-04-25T08:36:22Z</time>
      </trkpt>
      <trkpt lat="44.55371" lon="2.67226">
        <ele>311.2</ele>
        <time>2022-04-25T08:36:24Z</time>
      </trkpt>
      <trkpt lat="44.55371" lon="2.67225">
        <ele>311.2</ele>
        <time>2022-04-25T08:36:25Z</time>
      </trkpt>
      <trkpt lat="44.55372" lon="2.67224">
        <ele>311.2</ele>
        <time>2022-04-25T08:36:26Z</time>
      </trkpt>
      <trkpt lat="44.55375" lon="2.67222">
        <ele>311.6</ele>
        <time>2022-04-25T08:36:30Z</time>
      </trkpt>
      <trkpt lat="44.55381" lon="2.67217">
        <ele>312</ele>
        <time>2022-04-25T08:36:39Z</time>
      </trkpt>
      <trkpt lat="44.55389" lon="2.6721">
        <ele>311.4</ele>
        <time>2022-04-25T08:36:54Z</time>
      </trkpt>
      <trkpt lat="44.55398" lon="2.67208">
        <ele>311.4</ele>
        <time>2022-04-25T08:37:08Z</time>
      </trkpt>
      <trkpt lat="44.55398" lon="2.67213">
        <ele>311.6</ele>
        <time>2022-04-25T08:37:11Z</time>
      </trkpt>
      <trkpt lat="44.55399" lon="2.67213">
        <ele>311.8</ele>
        <time>2022-04-25T08:37:24Z</time>
      </trkpt>
      <trkpt lat="44.55399" lon="2.67206">
        <ele>312</ele>
        <time>2022-04-25T08:37:39Z</time>
      </trkpt>
      <trkpt lat="44.55399" lon="2.67208">
        <ele>311.8</ele>
        <time>2022-04-25T08:37:59Z</time>
      </trkpt>
      <trkpt lat="44.55398" lon="2.67209">
        <ele>311</ele>
        <time>2022-04-25T08:38:06Z</time>
      </trkpt>
      <trkpt lat="44.55398" lon="2.67207">
        <ele>312</ele>
        <time>2022-04-25T08:38:11Z</time>
      </trkpt>
      <trkpt lat="44.55398" lon="2.67206">
        <ele>312</ele>
        <time>2022-04-25T08:38:12Z</time>
      </trkpt>
      <trkpt lat="44.55398" lon="2.67196">
        <ele>312.2</ele>
        <time>2022-04-25T08:38:21Z</time>
      </trkpt>
      <trkpt lat="44.55398" lon="2.6719">
        <ele>312</ele>
        <time>2022-04-25T08:38:26Z</time>
      </trkpt>
      <trkpt lat="44.55403" lon="2.6718">
        <ele>312</ele>
        <time>2022-04-25T08:38:33Z</time>
      </trkpt>
      <trkpt lat="44.55404" lon="2.67178">
        <ele>312</ele>
        <time>2022-04-25T08:38:39Z</time>
      </trkpt>
      <trkpt lat="44.55405" lon="2.67174">
        <ele>312</ele>
        <time>2022-04-25T08:38:54Z</time>
      </trkpt>
      <trkpt lat="44.55406" lon="2.67174">
        <ele>312.4</ele>
        <time>2022-04-25T08:39:07Z</time>
      </trkpt>
      <trkpt lat="44.55406" lon="2.67173">
        <ele>312.2</ele>
        <time>2022-04-25T08:39:21Z</time>
      </trkpt>
      <trkpt lat="44.55406" lon="2.67161">
        <ele>312.4</ele>
        <time>2022-04-25T08:39:31Z</time>
      </trkpt>
      <trkpt lat="44.55409" lon="2.67156">
        <ele>312.6</ele>
        <time>2022-04-25T08:39:36Z</time>
      </trkpt>
      <trkpt lat="44.5541" lon="2.67152">
        <ele>313</ele>
        <time>2022-04-25T08:39:41Z</time>
      </trkpt>
      <trkpt lat="44.55411" lon="2.67151">
        <ele>313</ele>
        <time>2022-04-25T08:39:42Z</time>
      </trkpt>
      <trkpt lat="44.55413" lon="2.6715">
        <ele>313</ele>
        <time>2022-04-25T08:39:43Z</time>
      </trkpt>
      <trkpt lat="44.55416" lon="2.67148">
        <ele>313.8</ele>
        <time>2022-04-25T08:39:48Z</time>
      </trkpt>
      <trkpt lat="44.55417" lon="2.67148">
        <ele>313.8</ele>
        <time>2022-04-25T08:39:51Z</time>
      </trkpt>
      <trkpt lat="44.55418" lon="2.67145">
        <ele>313.6</ele>
        <time>2022-04-25T08:39:55Z</time>
      </trkpt>
      <trkpt lat="44.55418" lon="2.67137">
        <ele>314.2</ele>
        <time>2022-04-25T08:40:00Z</time>
      </trkpt>
      <trkpt lat="44.55415" lon="2.67132">
        <ele>314.4</ele>
        <time>2022-04-25T08:40:03Z</time>
      </trkpt>
      <trkpt lat="44.55417" lon="2.67129">
        <ele>314.6</ele>
        <time>2022-04-25T08:40:06Z</time>
      </trkpt>
      <trkpt lat="44.5542" lon="2.67123">
        <ele>315</ele>
        <time>2022-04-25T08:40:12Z</time>
      </trkpt>
      <trkpt lat="44.5542" lon="2.67122">
        <ele>315.2</ele>
        <time>2022-04-25T08:40:14Z</time>
      </trkpt>
      <trkpt lat="44.55424" lon="2.67118">
        <ele>315.6</ele>
        <time>2022-04-25T08:40:19Z</time>
      </trkpt>
      <trkpt lat="44.55428" lon="2.67113">
        <ele>315.8</ele>
        <time>2022-04-25T08:40:33Z</time>
      </trkpt>
      <trkpt lat="44.55436" lon="2.67116">
        <ele>316</ele>
        <time>2022-04-25T08:40:48Z</time>
      </trkpt>
      <trkpt lat="44.55436" lon="2.67112">
        <ele>316.4</ele>
        <time>2022-04-25T08:41:01Z</time>
      </trkpt>
      <trkpt lat="44.55436" lon="2.67112">
        <ele>316.4</ele>
        <time>2022-04-25T08:41:02Z</time>
      </trkpt>
      <trkpt lat="44.55442" lon="2.67108">
        <ele>317.4</ele>
        <time>2022-04-25T08:41:14Z</time>
      </trkpt>
      <trkpt lat="44.55449" lon="2.671">
        <ele>318.2</ele>
        <time>2022-04-25T08:41:26Z</time>
      </trkpt>
      <trkpt lat="44.55451" lon="2.67097">
        <ele>318.4</ele>
        <time>2022-04-25T08:41:29Z</time>
      </trkpt>
      <trkpt lat="44.55454" lon="2.67095">
        <ele>318.4</ele>
        <time>2022-04-25T08:41:32Z</time>
      </trkpt>
      <trkpt lat="44.55457" lon="2.67096">
        <ele>318.6</ele>
        <time>2022-04-25T08:41:34Z</time>
      </trkpt>
      <trkpt lat="44.55459" lon="2.67096">
        <ele>318.6</ele>
        <time>2022-04-25T08:41:36Z</time>
      </trkpt>
      <trkpt lat="44.55465" lon="2.67097">
        <ele>319</ele>
        <time>2022-04-25T08:41:40Z</time>
      </trkpt>
      <trkpt lat="44.55474" lon="2.67095">
        <ele>319.6</ele>
        <time>2022-04-25T08:41:47Z</time>
      </trkpt>
      <trkpt lat="44.55481" lon="2.67095">
        <ele>320.6</ele>
        <time>2022-04-25T08:41:55Z</time>
      </trkpt>
      <trkpt lat="44.55481" lon="2.67095">
        <ele>320.8</ele>
        <time>2022-04-25T08:41:57Z</time>
      </trkpt>
      <trkpt lat="44.55487" lon="2.67088">
        <ele>321.4</ele>
        <time>2022-04-25T08:42:03Z</time>
      </trkpt>
      <trkpt lat="44.5549" lon="2.67081">
        <ele>321.4</ele>
        <time>2022-04-25T08:42:18Z</time>
      </trkpt>
      <trkpt lat="44.55493" lon="2.6708">
        <ele>321.8</ele>
        <time>2022-04-25T08:42:26Z</time>
      </trkpt>
      <trkpt lat="44.55496" lon="2.67081">
        <ele>322.2</ele>
        <time>2022-04-25T08:42:33Z</time>
      </trkpt>
      <trkpt lat="44.55499" lon="2.67078">
        <ele>322.4</ele>
        <time>2022-04-25T08:42:37Z</time>
      </trkpt>
      <trkpt lat="44.555" lon="2.67077">
        <ele>322.4</ele>
        <time>2022-04-25T08:42:38Z</time>
      </trkpt>
      <trkpt lat="44.55502" lon="2.67075">
        <ele>322.8</ele>
        <time>2022-04-25T08:42:41Z</time>
      </trkpt>
      <trkpt lat="44.55503" lon="2.67074">
        <ele>322.8</ele>
        <time>2022-04-25T08:42:43Z</time>
      </trkpt>
      <trkpt lat="44.55506" lon="2.67073">
        <ele>323.4</ele>
        <time>2022-04-25T08:42:47Z</time>
      </trkpt>
      <trkpt lat="44.55507" lon="2.67073">
        <ele>323.6</ele>
        <time>2022-04-25T08:42:49Z</time>
      </trkpt>
      <trkpt lat="44.55509" lon="2.67074">
        <ele>323.6</ele>
        <time>2022-04-25T08:42:51Z</time>
      </trkpt>
      <trkpt lat="44.5551" lon="2.67074">
        <ele>323.8</ele>
        <time>2022-04-25T08:42:52Z</time>
      </trkpt>
      <trkpt lat="44.55512" lon="2.67074">
        <ele>323.8</ele>
        <time>2022-04-25T08:42:54Z</time>
      </trkpt>
      <trkpt lat="44.55515" lon="2.67074">
        <ele>324</ele>
        <time>2022-04-25T08:42:56Z</time>
      </trkpt>
      <trkpt lat="44.55523" lon="2.67079">
        <ele>324.6</ele>
        <time>2022-04-25T08:43:03Z</time>
      </trkpt>
      <trkpt lat="44.55528" lon="2.67083">
        <ele>324.6</ele>
        <time>2022-04-25T08:43:11Z</time>
      </trkpt>
      <trkpt lat="44.55528" lon="2.67082">
        <ele>324.4</ele>
        <time>2022-04-25T08:43:13Z</time>
      </trkpt>
      <trkpt lat="44.55536" lon="2.6708">
        <ele>324.8</ele>
        <time>2022-04-25T08:43:28Z</time>
      </trkpt>
      <trkpt lat="44.55536" lon="2.6708">
        <ele>324.8</ele>
        <time>2022-04-25T08:43:29Z</time>
      </trkpt>
      <trkpt lat="44.55545" lon="2.6708">
        <ele>324.6</ele>
        <time>2022-04-25T08:43:41Z</time>
      </trkpt>
      <trkpt lat="44.55547" lon="2.6708">
        <ele>324.4</ele>
        <time>2022-04-25T08:43:44Z</time>
      </trkpt>
      <trkpt lat="44.55548" lon="2.6708">
        <ele>324.2</ele>
        <time>2022-04-25T08:43:45Z</time>
      </trkpt>
      <trkpt lat="44.55552" lon="2.67081">
        <ele>323.8</ele>
        <time>2022-04-25T08:43:48Z</time>
      </trkpt>
      <trkpt lat="44.55553" lon="2.67082">
        <ele>323.8</ele>
        <time>2022-04-25T08:43:49Z</time>
      </trkpt>
      <trkpt lat="44.55562" lon="2.67081">
        <ele>323.8</ele>
        <time>2022-04-25T08:43:56Z</time>
      </trkpt>
      <trkpt lat="44.55581" lon="2.67078">
        <ele>323.2</ele>
        <time>2022-04-25T08:44:09Z</time>
      </trkpt>
      <trkpt lat="44.55586" lon="2.67077">
        <ele>323.2</ele>
        <time>2022-04-25T08:44:13Z</time>
      </trkpt>
      <trkpt lat="44.55598" lon="2.67076">
        <ele>322.6</ele>
        <time>2022-04-25T08:44:27Z</time>
      </trkpt>
      <trkpt lat="44.55599" lon="2.67075">
        <ele>322.8</ele>
        <time>2022-04-25T08:44:28Z</time>
      </trkpt>
      <trkpt lat="44.55609" lon="2.67084">
        <ele>323</ele>
        <time>2022-04-25T08:44:41Z</time>
      </trkpt>
      <trkpt lat="44.5561" lon="2.67083">
        <ele>323</ele>
        <time>2022-04-25T08:44:43Z</time>
      </trkpt>
      <trkpt lat="44.55612" lon="2.67083">
        <ele>323</ele>
        <time>2022-04-25T08:44:46Z</time>
      </trkpt>
      <trkpt lat="44.55622" lon="2.6708">
        <ele>322.8</ele>
        <time>2022-04-25T08:45:00Z</time>
      </trkpt>
      <trkpt lat="44.55628" lon="2.67082">
        <ele>322.8</ele>
        <time>2022-04-25T08:45:08Z</time>
      </trkpt>
      <trkpt lat="44.55632" lon="2.67082">
        <ele>322.4</ele>
        <time>2022-04-25T08:45:11Z</time>
      </trkpt>
      <trkpt lat="44.55638" lon="2.67082">
        <ele>322.2</ele>
        <time>2022-04-25T08:45:15Z</time>
      </trkpt>
      <trkpt lat="44.55644" lon="2.67084">
        <ele>322</ele>
        <time>2022-04-25T08:45:21Z</time>
      </trkpt>
      <trkpt lat="44.55643" lon="2.67084">
        <ele>321.8</ele>
        <time>2022-04-25T08:45:23Z</time>
      </trkpt>
      <trkpt lat="44.55643" lon="2.67084">
        <ele>321.6</ele>
        <time>2022-04-25T08:45:24Z</time>
      </trkpt>
      <trkpt lat="44.55635" lon="2.67088">
        <ele>321</ele>
        <time>2022-04-25T08:45:35Z</time>
      </trkpt>
      <trkpt lat="44.55632" lon="2.6709">
        <ele>320.6</ele>
        <time>2022-04-25T08:45:38Z</time>
      </trkpt>
      <trkpt lat="44.55631" lon="2.67091">
        <ele>320.6</ele>
        <time>2022-04-25T08:45:39Z</time>
      </trkpt>
      <trkpt lat="44.55628" lon="2.67094">
        <ele>320.8</ele>
        <time>2022-04-25T08:45:43Z</time>
      </trkpt>
      <trkpt lat="44.55627" lon="2.67094">
        <ele>321.2</ele>
        <time>2022-04-25T08:45:46Z</time>
      </trkpt>
      <trkpt lat="44.55624" lon="2.67096">
        <ele>320.2</ele>
        <time>2022-04-25T08:45:57Z</time>
      </trkpt>
      <trkpt lat="44.55612" lon="2.67107">
        <ele>319.6</ele>
        <time>2022-04-25T08:46:10Z</time>
      </trkpt>
      <trkpt lat="44.55611" lon="2.67107">
        <ele>319.4</ele>
        <time>2022-04-25T08:46:11Z</time>
      </trkpt>
      <trkpt lat="44.55602" lon="2.67117">
        <ele>318.2</ele>
        <time>2022-04-25T08:46:21Z</time>
      </trkpt>
      <trkpt lat="44.556" lon="2.67119">
        <ele>318.2</ele>
        <time>2022-04-25T08:46:24Z</time>
      </trkpt>
      <trkpt lat="44.55597" lon="2.67123">
        <ele>317.8</ele>
        <time>2022-04-25T08:46:30Z</time>
      </trkpt>
      <trkpt lat="44.55596" lon="2.67125">
        <ele>318</ele>
        <time>2022-04-25T08:46:32Z</time>
      </trkpt>
      <trkpt lat="44.55594" lon="2.67127">
        <ele>318.2</ele>
        <time>2022-04-25T08:46:34Z</time>
      </trkpt>
      <trkpt lat="44.55593" lon="2.67127">
        <ele>318.2</ele>
        <time>2022-04-25T08:46:35Z</time>
      </trkpt>
      <trkpt lat="44.55588" lon="2.67129">
        <ele>317.2</ele>
        <time>2022-04-25T08:46:40Z</time>
      </trkpt>
      <trkpt lat="44.55584" lon="2.67129">
        <ele>317.2</ele>
        <time>2022-04-25T08:46:44Z</time>
      </trkpt>
      <trkpt lat="44.5558" lon="2.67129">
        <ele>317</ele>
        <time>2022-04-25T08:46:48Z</time>
      </trkpt>
      <trkpt lat="44.55568" lon="2.67133">
        <ele>316.2</ele>
        <time>2022-04-25T08:47:00Z</time>
      </trkpt>
      <trkpt lat="44.55563" lon="2.67135">
        <ele>315.8</ele>
        <time>2022-04-25T08:47:05Z</time>
      </trkpt>
      <trkpt lat="44.55558" lon="2.67136">
        <ele>315.2</ele>
        <time>2022-04-25T08:47:12Z</time>
      </trkpt>
      <trkpt lat="44.55554" lon="2.67139">
        <ele>315</ele>
        <time>2022-04-25T08:47:18Z</time>
      </trkpt>
      <trkpt lat="44.55549" lon="2.67151">
        <ele>314.6</ele>
        <time>2022-04-25T08:47:30Z</time>
      </trkpt>
      <trkpt lat="44.55547" lon="2.67154">
        <ele>314.6</ele>
        <time>2022-04-25T08:47:33Z</time>
      </trkpt>
      <trkpt lat="44.55546" lon="2.67155">
        <ele>314.8</ele>
        <time>2022-04-25T08:47:34Z</time>
      </trkpt>
      <trkpt lat="44.5554" lon="2.67161">
        <ele>314.2</ele>
        <time>2022-04-25T08:47:43Z</time>
      </trkpt>
      <trkpt lat="44.5554" lon="2.67161">
        <ele>314.2</ele>
        <time>2022-04-25T08:47:44Z</time>
      </trkpt>
      <trkpt lat="44.55538" lon="2.67162">
        <ele>314</ele>
        <time>2022-04-25T08:47:46Z</time>
      </trkpt>
      <trkpt lat="44.55527" lon="2.67167">
        <ele>314</ele>
        <time>2022-04-25T08:47:57Z</time>
      </trkpt>
      <trkpt lat="44.5552" lon="2.67176">
        <ele>313.8</ele>
        <time>2022-04-25T08:48:09Z</time>
      </trkpt>
      <trkpt lat="44.55521" lon="2.67177">
        <ele>314</ele>
        <time>2022-04-25T08:48:13Z</time>
      </trkpt>
      <trkpt lat="44.55519" lon="2.6719">
        <ele>314</ele>
        <time>2022-04-25T08:48:27Z</time>
      </trkpt>
      <trkpt lat="44.55517" lon="2.67195">
        <ele>314</ele>
        <time>2022-04-25T08:48:31Z</time>
      </trkpt>
      <trkpt lat="44.55516" lon="2.67199">
        <ele>314</ele>
        <time>2022-04-25T08:48:35Z</time>
      </trkpt>
      <trkpt lat="44.55516" lon="2.67204">
        <ele>314.2</ele>
        <time>2022-04-25T08:48:39Z</time>
      </trkpt>
      <trkpt lat="44.55516" lon="2.67205">
        <ele>314.2</ele>
        <time>2022-04-25T08:48:40Z</time>
      </trkpt>
      <trkpt lat="44.55516" lon="2.67206">
        <ele>314.2</ele>
        <time>2022-04-25T08:48:41Z</time>
      </trkpt>
      <trkpt lat="44.55518" lon="2.67208">
        <ele>314.4</ele>
        <time>2022-04-25T08:48:43Z</time>
      </trkpt>
      <trkpt lat="44.5552" lon="2.67211">
        <ele>314.8</ele>
        <time>2022-04-25T08:48:46Z</time>
      </trkpt>
      <trkpt lat="44.55521" lon="2.67213">
        <ele>315</ele>
        <time>2022-04-25T08:48:49Z</time>
      </trkpt>
      <trkpt lat="44.55522" lon="2.67218">
        <ele>315.2</ele>
        <time>2022-04-25T08:48:52Z</time>
      </trkpt>
      <trkpt lat="44.55522" lon="2.67221">
        <ele>315.6</ele>
        <time>2022-04-25T08:48:55Z</time>
      </trkpt>
      <trkpt lat="44.55509" lon="2.67221">
        <ele>315.8</ele>
        <time>2022-04-25T08:49:13Z</time>
      </trkpt>
      <trkpt lat="44.55502" lon="2.67229">
        <ele>315.6</ele>
        <time>2022-04-25T08:49:33Z</time>
      </trkpt>
      <trkpt lat="44.55499" lon="2.67231">
        <ele>315.2</ele>
        <time>2022-04-25T08:49:46Z</time>
      </trkpt>
      <trkpt lat="44.55495" lon="2.67221">
        <ele>314.6</ele>
        <time>2022-04-25T08:49:56Z</time>
      </trkpt>
      <trkpt lat="44.55493" lon="2.67222">
        <ele>314.4</ele>
        <time>2022-04-25T08:49:59Z</time>
      </trkpt>
      <trkpt lat="44.55492" lon="2.67221">
        <ele>314.2</ele>
        <time>2022-04-25T08:50:00Z</time>
      </trkpt>
      <trkpt lat="44.55489" lon="2.67219">
        <ele>314.2</ele>
        <time>2022-04-25T08:50:03Z</time>
      </trkpt>
      <trkpt lat="44.55487" lon="2.67219">
        <ele>314.4</ele>
        <time>2022-04-25T08:50:05Z</time>
      </trkpt>
      <trkpt lat="44.55481" lon="2.67217">
        <ele>315.4</ele>
        <time>2022-04-25T08:50:17Z</time>
      </trkpt>
      <trkpt lat="44.55481" lon="2.67219">
        <ele>315.6</ele>
        <time>2022-04-25T08:50:18Z</time>
      </trkpt>
      <trkpt lat="44.5548" lon="2.67226">
        <ele>316.4</ele>
        <time>2022-04-25T08:50:23Z</time>
      </trkpt>
      <trkpt lat="44.55479" lon="2.67227">
        <ele>316.8</ele>
        <time>2022-04-25T08:50:24Z</time>
      </trkpt>
      <trkpt lat="44.55478" lon="2.6723">
        <ele>317</ele>
        <time>2022-04-25T08:50:28Z</time>
      </trkpt>
      <trkpt lat="44.55478" lon="2.67232">
        <ele>317</ele>
        <time>2022-04-25T08:50:29Z</time>
      </trkpt>
      <trkpt lat="44.55473" lon="2.67236">
        <ele>317.4</ele>
        <time>2022-04-25T08:50:35Z</time>
      </trkpt>
      <trkpt lat="44.55469" lon="2.6724">
        <ele>318.6</ele>
        <time>2022-04-25T08:50:43Z</time>
      </trkpt>
      <trkpt lat="44.55467" lon="2.6724">
        <ele>319.2</ele>
        <time>2022-04-25T08:50:46Z</time>
      </trkpt>
      <trkpt lat="44.55466" lon="2.67239">
        <ele>319.2</ele>
        <time>2022-04-25T08:50:47Z</time>
      </trkpt>
      <trkpt lat="44.55462" lon="2.67238">
        <ele>319.8</ele>
        <time>2022-04-25T08:50:54Z</time>
      </trkpt>
      <trkpt lat="44.55461" lon="2.67243">
        <ele>320</ele>
        <time>2022-04-25T08:50:57Z</time>
      </trkpt>
      <trkpt lat="44.55458" lon="2.67247">
        <ele>320.4</ele>
        <time>2022-04-25T08:51:00Z</time>
      </trkpt>
      <trkpt lat="44.5546" lon="2.67253">
        <ele>321</ele>
        <time>2022-04-25T08:51:06Z</time>
      </trkpt>
      <trkpt lat="44.5546" lon="2.67255">
        <ele>321.2</ele>
        <time>2022-04-25T08:51:11Z</time>
      </trkpt>
      <trkpt lat="44.5546" lon="2.67255">
        <ele>319.8</ele>
        <time>2022-04-25T08:51:25Z</time>
      </trkpt>
      <trkpt lat="44.55448" lon="2.67251">
        <ele>319.6</ele>
        <time>2022-04-25T08:51:35Z</time>
      </trkpt>
      <trkpt lat="44.55449" lon="2.67255">
        <ele>320</ele>
        <time>2022-04-25T08:51:38Z</time>
      </trkpt>
      <trkpt lat="44.55452" lon="2.67262">
        <ele>320.6</ele>
        <time>2022-04-25T08:51:40Z</time>
      </trkpt>
      <trkpt lat="44.55454" lon="2.67265">
        <ele>320.8</ele>
        <time>2022-04-25T08:51:42Z</time>
      </trkpt>
      <trkpt lat="44.55455" lon="2.67265">
        <ele>320.8</ele>
        <time>2022-04-25T08:51:43Z</time>
      </trkpt>
      <trkpt lat="44.55456" lon="2.67265">
        <ele>321.2</ele>
        <time>2022-04-25T08:51:45Z</time>
      </trkpt>
      <trkpt lat="44.55458" lon="2.67266">
        <ele>322</ele>
        <time>2022-04-25T08:51:51Z</time>
      </trkpt>
      <trkpt lat="44.55459" lon="2.6727">
        <ele>323</ele>
        <time>2022-04-25T08:51:57Z</time>
      </trkpt>
      <trkpt lat="44.5546" lon="2.67273">
        <ele>324</ele>
        <time>2022-04-25T08:52:00Z</time>
      </trkpt>
      <trkpt lat="44.5546" lon="2.67273">
        <ele>324.6</ele>
        <time>2022-04-25T08:52:01Z</time>
      </trkpt>
      <trkpt lat="44.55461" lon="2.67278">
        <ele>325.6</ele>
        <time>2022-04-25T08:52:06Z</time>
      </trkpt>
      <trkpt lat="44.55466" lon="2.6728">
        <ele>325.8</ele>
        <time>2022-04-25T08:52:09Z</time>
      </trkpt>
      <trkpt lat="44.55473" lon="2.67282">
        <ele>326</ele>
        <time>2022-04-25T08:52:13Z</time>
      </trkpt>
      <trkpt lat="44.55476" lon="2.67283">
        <ele>326.2</ele>
        <time>2022-04-25T08:52:15Z</time>
      </trkpt>
      <trkpt lat="44.55479" lon="2.67286">
        <ele>326.6</ele>
        <time>2022-04-25T08:52:18Z</time>
      </trkpt>
      <trkpt lat="44.5548" lon="2.67287">
        <ele>326.8</ele>
        <time>2022-04-25T08:52:20Z</time>
      </trkpt>
      <trkpt lat="44.55481" lon="2.67289">
        <ele>326.8</ele>
        <time>2022-04-25T08:52:23Z</time>
      </trkpt>
      <trkpt lat="44.55483" lon="2.6729">
        <ele>327</ele>
        <time>2022-04-25T08:52:25Z</time>
      </trkpt>
      <trkpt lat="44.55484" lon="2.67291">
        <ele>327</ele>
        <time>2022-04-25T08:52:27Z</time>
      </trkpt>
      <trkpt lat="44.55488" lon="2.67292">
        <ele>327.4</ele>
        <time>2022-04-25T08:52:38Z</time>
      </trkpt>
      <trkpt lat="44.55488" lon="2.67293">
        <ele>327.8</ele>
        <time>2022-04-25T08:52:40Z</time>
      </trkpt>
      <trkpt lat="44.55487" lon="2.67292">
        <ele>328.6</ele>
        <time>2022-04-25T08:52:48Z</time>
      </trkpt>
      <trkpt lat="44.55484" lon="2.67291">
        <ele>328</ele>
        <time>2022-04-25T08:52:53Z</time>
      </trkpt>
      <trkpt lat="44.55482" lon="2.67293">
        <ele>327.4</ele>
        <time>2022-04-25T08:52:58Z</time>
      </trkpt>
      <trkpt lat="44.55482" lon="2.67294">
        <ele>327.2</ele>
        <time>2022-04-25T08:53:13Z</time>
      </trkpt>
      <trkpt lat="44.55483" lon="2.67293">
        <ele>328.2</ele>
        <time>2022-04-25T08:53:28Z</time>
      </trkpt>
      <trkpt lat="44.55484" lon="2.67291">
        <ele>327.4</ele>
        <time>2022-04-25T08:53:44Z</time>
      </trkpt>
      <trkpt lat="44.55489" lon="2.67288">
        <ele>327.4</ele>
        <time>2022-04-25T08:53:54Z</time>
      </trkpt>
      <trkpt lat="44.55491" lon="2.67286">
        <ele>327.4</ele>
        <time>2022-04-25T08:53:55Z</time>
      </trkpt>
      <trkpt lat="44.55493" lon="2.67285">
        <ele>327.4</ele>
        <time>2022-04-25T08:53:58Z</time>
      </trkpt>
      <trkpt lat="44.55498" lon="2.67282">
        <ele>328.6</ele>
        <time>2022-04-25T08:54:04Z</time>
      </trkpt>
      <trkpt lat="44.555" lon="2.6728">
        <ele>328.8</ele>
        <time>2022-04-25T08:54:07Z</time>
      </trkpt>
      <trkpt lat="44.55503" lon="2.67277">
        <ele>329.2</ele>
        <time>2022-04-25T08:54:11Z</time>
      </trkpt>
      <trkpt lat="44.55512" lon="2.67275">
        <ele>329.4</ele>
        <time>2022-04-25T08:54:22Z</time>
      </trkpt>
      <trkpt lat="44.55512" lon="2.67275">
        <ele>329.4</ele>
        <time>2022-04-25T08:54:23Z</time>
      </trkpt>
      <trkpt lat="44.55516" lon="2.6728">
        <ele>329.6</ele>
        <time>2022-04-25T08:54:33Z</time>
      </trkpt>
      <trkpt lat="44.55517" lon="2.67279">
        <ele>330</ele>
        <time>2022-04-25T08:54:35Z</time>
      </trkpt>
      <trkpt lat="44.55517" lon="2.67279">
        <ele>330.6</ele>
        <time>2022-04-25T08:54:42Z</time>
      </trkpt>
      <trkpt lat="44.55526" lon="2.67277">
        <ele>331</ele>
        <time>2022-04-25T08:54:45Z</time>
      </trkpt>
      <trkpt lat="44.55528" lon="2.67277">
        <ele>331.6</ele>
        <time>2022-04-25T08:54:48Z</time>
      </trkpt>
      <trkpt lat="44.55532" lon="2.67275">
        <ele>332.2</ele>
        <time>2022-04-25T08:54:55Z</time>
      </trkpt>
      <trkpt lat="44.55535" lon="2.67277">
        <ele>332.6</ele>
        <time>2022-04-25T08:55:01Z</time>
      </trkpt>
      <trkpt lat="44.55538" lon="2.67277">
        <ele>333.2</ele>
        <time>2022-04-25T08:55:05Z</time>
      </trkpt>
      <trkpt lat="44.55543" lon="2.67276">
        <ele>334.4</ele>
        <time>2022-04-25T08:55:14Z</time>
      </trkpt>
      <trkpt lat="44.55543" lon="2.67276">
        <ele>334.6</ele>
        <time>2022-04-25T08:55:15Z</time>
      </trkpt>
      <trkpt lat="44.55552" lon="2.67277">
        <ele>335.6</ele>
        <time>2022-04-25T08:55:27Z</time>
      </trkpt>
      <trkpt lat="44.55555" lon="2.67277">
        <ele>335.6</ele>
        <time>2022-04-25T08:55:31Z</time>
      </trkpt>
      <trkpt lat="44.55556" lon="2.67277">
        <ele>335.8</ele>
        <time>2022-04-25T08:55:32Z</time>
      </trkpt>
      <trkpt lat="44.55559" lon="2.67278">
        <ele>336</ele>
        <time>2022-04-25T08:55:36Z</time>
      </trkpt>
      <trkpt lat="44.55563" lon="2.67277">
        <ele>336.6</ele>
        <time>2022-04-25T08:55:42Z</time>
      </trkpt>
      <trkpt lat="44.55564" lon="2.67277">
        <ele>336.8</ele>
        <time>2022-04-25T08:55:45Z</time>
      </trkpt>
      <trkpt lat="44.55565" lon="2.67273">
        <ele>336.8</ele>
        <time>2022-04-25T08:55:55Z</time>
      </trkpt>
      <trkpt lat="44.55564" lon="2.67273">
        <ele>336.8</ele>
        <time>2022-04-25T08:56:13Z</time>
      </trkpt>
      <trkpt lat="44.55564" lon="2.67274">
        <ele>337</ele>
        <time>2022-04-25T08:56:25Z</time>
      </trkpt>
      <trkpt lat="44.55564" lon="2.67275">
        <ele>337.6</ele>
        <time>2022-04-25T08:56:28Z</time>
      </trkpt>
      <trkpt lat="44.55564" lon="2.67273">
        <ele>336.8</ele>
        <time>2022-04-25T08:56:39Z</time>
      </trkpt>
      <trkpt lat="44.55564" lon="2.67273">
        <ele>336.6</ele>
        <time>2022-04-25T08:56:47Z</time>
      </trkpt>
      <trkpt lat="44.55563" lon="2.67275">
        <ele>336.6</ele>
        <time>2022-04-25T08:56:52Z</time>
      </trkpt>
      <trkpt lat="44.55565" lon="2.67276">
        <ele>336.4</ele>
        <time>2022-04-25T08:57:06Z</time>
      </trkpt>
      <trkpt lat="44.55564" lon="2.67277">
        <ele>336.4</ele>
        <time>2022-04-25T08:57:23Z</time>
      </trkpt>
      <trkpt lat="44.55564" lon="2.67276">
        <ele>336.4</ele>
        <time>2022-04-25T08:57:39Z</time>
      </trkpt>
      <trkpt lat="44.55561" lon="2.67275">
        <ele>337</ele>
        <time>2022-04-25T08:57:52Z</time>
      </trkpt>
      <trkpt lat="44.5556" lon="2.67278">
        <ele>337</ele>
        <time>2022-04-25T08:58:05Z</time>
      </trkpt>
      <trkpt lat="44.55564" lon="2.67274">
        <ele>336.6</ele>
        <time>2022-04-25T08:58:20Z</time>
      </trkpt>
      <trkpt lat="44.55564" lon="2.67274">
        <ele>336.6</ele>
        <time>2022-04-25T08:58:40Z</time>
      </trkpt>
      <trkpt lat="44.55559" lon="2.67276">
        <ele>336.6</ele>
        <time>2022-04-25T08:58:50Z</time>
      </trkpt>
      <trkpt lat="44.55558" lon="2.67276">
        <ele>336.6</ele>
        <time>2022-04-25T08:58:51Z</time>
      </trkpt>
      <trkpt lat="44.55555" lon="2.67275">
        <ele>336.6</ele>
        <time>2022-04-25T08:58:55Z</time>
      </trkpt>
      <trkpt lat="44.55547" lon="2.67276">
        <ele>335.8</ele>
        <time>2022-04-25T08:59:02Z</time>
      </trkpt>
      <trkpt lat="44.55545" lon="2.67276">
        <ele>336.2</ele>
        <time>2022-04-25T08:59:05Z</time>
      </trkpt>
      <trkpt lat="44.55544" lon="2.67277">
        <ele>336.4</ele>
        <time>2022-04-25T08:59:11Z</time>
      </trkpt>
      <trkpt lat="44.5554" lon="2.67276">
        <ele>335.4</ele>
        <time>2022-04-25T08:59:16Z</time>
      </trkpt>
      <trkpt lat="44.55536" lon="2.67276">
        <ele>332.6</ele>
        <time>2022-04-25T08:59:20Z</time>
      </trkpt>
      <trkpt lat="44.55528" lon="2.67275">
        <ele>331.4</ele>
        <time>2022-04-25T08:59:31Z</time>
      </trkpt>
      <trkpt lat="44.55524" lon="2.67275">
        <ele>331</ele>
        <time>2022-04-25T08:59:35Z</time>
      </trkpt>
      <trkpt lat="44.55517" lon="2.67274">
        <ele>330.4</ele>
        <time>2022-04-25T08:59:41Z</time>
      </trkpt>
      <trkpt lat="44.55512" lon="2.67272">
        <ele>329.4</ele>
        <time>2022-04-25T08:59:46Z</time>
      </trkpt>
      <trkpt lat="44.55508" lon="2.67272">
        <ele>328.8</ele>
        <time>2022-04-25T08:59:50Z</time>
      </trkpt>
      <trkpt lat="44.55503" lon="2.67272">
        <ele>328.2</ele>
        <time>2022-04-25T08:59:56Z</time>
      </trkpt>
      <trkpt lat="44.55502" lon="2.67272">
        <ele>328.4</ele>
        <time>2022-04-25T08:59:57Z</time>
      </trkpt>
      <trkpt lat="44.55502" lon="2.67272">
        <ele>328.4</ele>
        <time>2022-04-25T08:59:58Z</time>
      </trkpt>
      <trkpt lat="44.555" lon="2.6727">
        <ele>328</ele>
        <time>2022-04-25T09:00:01Z</time>
      </trkpt>
      <trkpt lat="44.55496" lon="2.67269">
        <ele>327.2</ele>
        <time>2022-04-25T09:00:05Z</time>
      </trkpt>
      <trkpt lat="44.55489" lon="2.67269">
        <ele>327</ele>
        <time>2022-04-25T09:00:10Z</time>
      </trkpt>
      <trkpt lat="44.55479" lon="2.67268">
        <ele>325.8</ele>
        <time>2022-04-25T09:00:20Z</time>
      </trkpt>
      <trkpt lat="44.55478" lon="2.67271">
        <ele>325.2</ele>
        <time>2022-04-25T09:00:24Z</time>
      </trkpt>
      <trkpt lat="44.55477" lon="2.67274">
        <ele>324.6</ele>
        <time>2022-04-25T09:00:28Z</time>
      </trkpt>
      <trkpt lat="44.55474" lon="2.67274">
        <ele>324</ele>
        <time>2022-04-25T09:00:31Z</time>
      </trkpt>
      <trkpt lat="44.55473" lon="2.67276">
        <ele>323.6</ele>
        <time>2022-04-25T09:00:33Z</time>
      </trkpt>
      <trkpt lat="44.55474" lon="2.67286">
        <ele>323.2</ele>
        <time>2022-04-25T09:00:46Z</time>
      </trkpt>
      <trkpt lat="44.55474" lon="2.67287">
        <ele>323.2</ele>
        <time>2022-04-25T09:00:47Z</time>
      </trkpt>
      <trkpt lat="44.55477" lon="2.67295">
        <ele>322.6</ele>
        <time>2022-04-25T09:00:54Z</time>
      </trkpt>
      <trkpt lat="44.55476" lon="2.67296">
        <ele>322.4</ele>
        <time>2022-04-25T09:00:56Z</time>
      </trkpt>
      <trkpt lat="44.55477" lon="2.67297">
        <ele>322</ele>
        <time>2022-04-25T09:00:58Z</time>
      </trkpt>
      <trkpt lat="44.55477" lon="2.67298">
        <ele>321.6</ele>
        <time>2022-04-25T09:00:59Z</time>
      </trkpt>
      <trkpt lat="44.55478" lon="2.67298">
        <ele>321.4</ele>
        <time>2022-04-25T09:01:00Z</time>
      </trkpt>
      <trkpt lat="44.55479" lon="2.67301">
        <ele>320.8</ele>
        <time>2022-04-25T09:01:03Z</time>
      </trkpt>
      <trkpt lat="44.5548" lon="2.67304">
        <ele>320.2</ele>
        <time>2022-04-25T09:01:06Z</time>
      </trkpt>
      <trkpt lat="44.55483" lon="2.6731">
        <ele>319.2</ele>
        <time>2022-04-25T09:01:13Z</time>
      </trkpt>
      <trkpt lat="44.55484" lon="2.67312">
        <ele>319</ele>
        <time>2022-04-25T09:01:15Z</time>
      </trkpt>
      <trkpt lat="44.55485" lon="2.67316">
        <ele>318.2</ele>
        <time>2022-04-25T09:01:19Z</time>
      </trkpt>
      <trkpt lat="44.55485" lon="2.67317">
        <ele>317.8</ele>
        <time>2022-04-25T09:01:20Z</time>
      </trkpt>
      <trkpt lat="44.55487" lon="2.6732">
        <ele>316.8</ele>
        <time>2022-04-25T09:01:27Z</time>
      </trkpt>
      <trkpt lat="44.55487" lon="2.6732">
        <ele>316.6</ele>
        <time>2022-04-25T09:01:28Z</time>
      </trkpt>
      <trkpt lat="44.55491" lon="2.67324">
        <ele>315.8</ele>
        <time>2022-04-25T09:01:40Z</time>
      </trkpt>
      <trkpt lat="44.55493" lon="2.67326">
        <ele>314.8</ele>
        <time>2022-04-25T09:01:48Z</time>
      </trkpt>
      <trkpt lat="44.55493" lon="2.67327">
        <ele>314.8</ele>
        <time>2022-04-25T09:01:52Z</time>
      </trkpt>
      <trkpt lat="44.55495" lon="2.67328">
        <ele>314.6</ele>
        <time>2022-04-25T09:02:07Z</time>
      </trkpt>
      <trkpt lat="44.55497" lon="2.67334">
        <ele>313.6</ele>
        <time>2022-04-25T09:02:16Z</time>
      </trkpt>
      <trkpt lat="44.55497" lon="2.67338">
        <ele>312.8</ele>
        <time>2022-04-25T09:02:20Z</time>
      </trkpt>
      <trkpt lat="44.55497" lon="2.67338">
        <ele>312.6</ele>
        <time>2022-04-25T09:02:21Z</time>
      </trkpt>
      <trkpt lat="44.55501" lon="2.67344">
        <ele>311.4</ele>
        <time>2022-04-25T09:02:30Z</time>
      </trkpt>
      <trkpt lat="44.55501" lon="2.67344">
        <ele>310.4</ele>
        <time>2022-04-25T09:02:34Z</time>
      </trkpt>
      <trkpt lat="44.55501" lon="2.67348">
        <ele>309.6</ele>
        <time>2022-04-25T09:02:38Z</time>
      </trkpt>
      <trkpt lat="44.55501" lon="2.67348">
        <ele>309.2</ele>
        <time>2022-04-25T09:02:40Z</time>
      </trkpt>
      <trkpt lat="44.555" lon="2.67346">
        <ele>308.4</ele>
        <time>2022-04-25T09:02:51Z</time>
      </trkpt>
      <trkpt lat="44.555" lon="2.67346">
        <ele>308.2</ele>
        <time>2022-04-25T09:02:55Z</time>
      </trkpt>
      <trkpt lat="44.55498" lon="2.67343">
        <ele>307.8</ele>
        <time>2022-04-25T09:03:04Z</time>
      </trkpt>
      <trkpt lat="44.55494" lon="2.67342">
        <ele>307.6</ele>
        <time>2022-04-25T09:03:17Z</time>
      </trkpt>
      <trkpt lat="44.55492" lon="2.67343">
        <ele>307.2</ele>
        <time>2022-04-25T09:03:20Z</time>
      </trkpt>
      <trkpt lat="44.55488" lon="2.67344">
        <ele>306.6</ele>
        <time>2022-04-25T09:03:25Z</time>
      </trkpt>
      <trkpt lat="44.55486" lon="2.67347">
        <ele>306.2</ele>
        <time>2022-04-25T09:03:30Z</time>
      </trkpt>
      <trkpt lat="44.55483" lon="2.67348">
        <ele>306</ele>
        <time>2022-04-25T09:03:32Z</time>
      </trkpt>
      <trkpt lat="44.55483" lon="2.67341">
        <ele>305.6</ele>
        <time>2022-04-25T09:03:45Z</time>
      </trkpt>
      <trkpt lat="44.55479" lon="2.67336">
        <ele>305</ele>
        <time>2022-04-25T09:04:00Z</time>
      </trkpt>
      <trkpt lat="44.55475" lon="2.67336">
        <ele>304.4</ele>
        <time>2022-04-25T09:04:11Z</time>
      </trkpt>
      <trkpt lat="44.55474" lon="2.67341">
        <ele>304.6</ele>
        <time>2022-04-25T09:04:14Z</time>
      </trkpt>
      <trkpt lat="44.55473" lon="2.67349">
        <ele>304.8</ele>
        <time>2022-04-25T09:04:18Z</time>
      </trkpt>
      <trkpt lat="44.55472" lon="2.67352">
        <ele>305</ele>
        <time>2022-04-25T09:04:20Z</time>
      </trkpt>
      <trkpt lat="44.55472" lon="2.67357">
        <ele>305.2</ele>
        <time>2022-04-25T09:04:23Z</time>
      </trkpt>
      <trkpt lat="44.5547" lon="2.67358">
        <ele>305.2</ele>
        <time>2022-04-25T09:04:34Z</time>
      </trkpt>
      <trkpt lat="44.55467" lon="2.67356">
        <ele>304.8</ele>
        <time>2022-04-25T09:04:49Z</time>
      </trkpt>
      <trkpt lat="44.55467" lon="2.67356">
        <ele>304.8</ele>
        <time>2022-04-25T09:05:07Z</time>
      </trkpt>
      <trkpt lat="44.55469" lon="2.67356">
        <ele>304.8</ele>
        <time>2022-04-25T09:05:26Z</time>
      </trkpt>
      <trkpt lat="44.55471" lon="2.67353">
        <ele>304.8</ele>
        <time>2022-04-25T09:05:46Z</time>
      </trkpt>
      <trkpt lat="44.55469" lon="2.67358">
        <ele>304.8</ele>
        <time>2022-04-25T09:05:58Z</time>
      </trkpt>
      <trkpt lat="44.5547" lon="2.67367">
        <ele>304.8</ele>
        <time>2022-04-25T09:06:10Z</time>
      </trkpt>
      <trkpt lat="44.55474" lon="2.67373">
        <ele>304.8</ele>
        <time>2022-04-25T09:06:22Z</time>
      </trkpt>
      <trkpt lat="44.55475" lon="2.67375">
        <ele>304.8</ele>
        <time>2022-04-25T09:06:24Z</time>
      </trkpt>
      <trkpt lat="44.55476" lon="2.67378">
        <ele>302.4</ele>
        <time>2022-04-25T09:06:26Z</time>
      </trkpt>
      <trkpt lat="44.55479" lon="2.67385">
        <ele>302.8</ele>
        <time>2022-04-25T09:06:35Z</time>
      </trkpt>
      <trkpt lat="44.55482" lon="2.67388">
        <ele>303</ele>
        <time>2022-04-25T09:06:40Z</time>
      </trkpt>
      <trkpt lat="44.55484" lon="2.6739">
        <ele>303.4</ele>
        <time>2022-04-25T09:06:43Z</time>
      </trkpt>
      <trkpt lat="44.55485" lon="2.67391">
        <ele>303.6</ele>
        <time>2022-04-25T09:06:44Z</time>
      </trkpt>
      <trkpt lat="44.55488" lon="2.67393">
        <ele>303.8</ele>
        <time>2022-04-25T09:06:46Z</time>
      </trkpt>
      <trkpt lat="44.55489" lon="2.67394">
        <ele>304</ele>
        <time>2022-04-25T09:06:48Z</time>
      </trkpt>
      <trkpt lat="44.55493" lon="2.67397">
        <ele>304.2</ele>
        <time>2022-04-25T09:06:51Z</time>
      </trkpt>
      <trkpt lat="44.55495" lon="2.67399">
        <ele>304.4</ele>
        <time>2022-04-25T09:06:53Z</time>
      </trkpt>
      <trkpt lat="44.55508" lon="2.67406">
        <ele>305.6</ele>
        <time>2022-04-25T09:07:04Z</time>
      </trkpt>
      <trkpt lat="44.55511" lon="2.67411">
        <ele>305.8</ele>
        <time>2022-04-25T09:07:08Z</time>
      </trkpt>
      <trkpt lat="44.55509" lon="2.67432">
        <ele>306.6</ele>
        <time>2022-04-25T09:07:18Z</time>
      </trkpt>
      <trkpt lat="44.5551" lon="2.67434">
        <ele>306.8</ele>
        <time>2022-04-25T09:07:20Z</time>
      </trkpt>
      <trkpt lat="44.55515" lon="2.67441">
        <ele>307.6</ele>
        <time>2022-04-25T09:07:27Z</time>
      </trkpt>
      <trkpt lat="44.55519" lon="2.67449">
        <ele>308.8</ele>
        <time>2022-04-25T09:07:34Z</time>
      </trkpt>
      <trkpt lat="44.55519" lon="2.6745">
        <ele>308.8</ele>
        <time>2022-04-25T09:07:35Z</time>
      </trkpt>
      <trkpt lat="44.55526" lon="2.67461">
        <ele>310</ele>
        <time>2022-04-25T09:07:46Z</time>
      </trkpt>
      <trkpt lat="44.55527" lon="2.67462">
        <ele>310.4</ele>
        <time>2022-04-25T09:07:47Z</time>
      </trkpt>
      <trkpt lat="44.55532" lon="2.67469">
        <ele>311</ele>
        <time>2022-04-25T09:07:54Z</time>
      </trkpt>
      <trkpt lat="44.55535" lon="2.67474">
        <ele>311.8</ele>
        <time>2022-04-25T09:07:59Z</time>
      </trkpt>
      <trkpt lat="44.55536" lon="2.67475">
        <ele>311.8</ele>
        <time>2022-04-25T09:08:01Z</time>
      </trkpt>
      <trkpt lat="44.55537" lon="2.67475">
        <ele>311.6</ele>
        <time>2022-04-25T09:08:03Z</time>
      </trkpt>
      <trkpt lat="44.55539" lon="2.67476">
        <ele>312</ele>
        <time>2022-04-25T09:08:08Z</time>
      </trkpt>
      <trkpt lat="44.55539" lon="2.67477">
        <ele>312.2</ele>
        <time>2022-04-25T09:08:11Z</time>
      </trkpt>
      <trkpt lat="44.55537" lon="2.67477">
        <ele>312.2</ele>
        <time>2022-04-25T09:08:27Z</time>
      </trkpt>
      <trkpt lat="44.55534" lon="2.67474">
        <ele>312</ele>
        <time>2022-04-25T09:08:38Z</time>
      </trkpt>
      <trkpt lat="44.55528" lon="2.67467">
        <ele>311</ele>
        <time>2022-04-25T09:08:49Z</time>
      </trkpt>
      <trkpt lat="44.55526" lon="2.67465">
        <ele>310.8</ele>
        <time>2022-04-25T09:08:52Z</time>
      </trkpt>
      <trkpt lat="44.55524" lon="2.67462">
        <ele>310</ele>
        <time>2022-04-25T09:08:57Z</time>
      </trkpt>
      <trkpt lat="44.55521" lon="2.67453">
        <ele>309.4</ele>
        <time>2022-04-25T09:09:06Z</time>
      </trkpt>
      <trkpt lat="44.5552" lon="2.6745">
        <ele>308.8</ele>
        <time>2022-04-25T09:09:09Z</time>
      </trkpt>
      <trkpt lat="44.55519" lon="2.67447">
        <ele>307.8</ele>
        <time>2022-04-25T09:09:13Z</time>
      </trkpt>
      <trkpt lat="44.55517" lon="2.67443">
        <ele>307.8</ele>
        <time>2022-04-25T09:09:17Z</time>
      </trkpt>
      <trkpt lat="44.55516" lon="2.6744">
        <ele>307.6</ele>
        <time>2022-04-25T09:09:19Z</time>
      </trkpt>
      <trkpt lat="44.55513" lon="2.67434">
        <ele>306.8</ele>
        <time>2022-04-25T09:09:26Z</time>
      </trkpt>
      <trkpt lat="44.55511" lon="2.67431">
        <ele>306.6</ele>
        <time>2022-04-25T09:09:30Z</time>
      </trkpt>
      <trkpt lat="44.55505" lon="2.6742">
        <ele>305.4</ele>
        <time>2022-04-25T09:09:43Z</time>
      </trkpt>
      <trkpt lat="44.55497" lon="2.67409">
        <ele>304.8</ele>
        <time>2022-04-25T09:09:53Z</time>
      </trkpt>
      <trkpt lat="44.55494" lon="2.67404">
        <ele>304.4</ele>
        <time>2022-04-25T09:09:57Z</time>
      </trkpt>
      <trkpt lat="44.55493" lon="2.67403">
        <ele>304</ele>
        <time>2022-04-25T09:09:59Z</time>
      </trkpt>
      <trkpt lat="44.55489" lon="2.67401">
        <ele>303.4</ele>
        <time>2022-04-25T09:10:05Z</time>
      </trkpt>
      <trkpt lat="44.55489" lon="2.674">
        <ele>303.4</ele>
        <time>2022-04-25T09:10:06Z</time>
      </trkpt>
      <trkpt lat="44.55488" lon="2.674">
        <ele>303.4</ele>
        <time>2022-04-25T09:10:07Z</time>
      </trkpt>
      <trkpt lat="44.55485" lon="2.67394">
        <ele>303.2</ele>
        <time>2022-04-25T09:10:12Z</time>
      </trkpt>
      <trkpt lat="44.55484" lon="2.67393">
        <ele>303.2</ele>
        <time>2022-04-25T09:10:13Z</time>
      </trkpt>
      <trkpt lat="44.55479" lon="2.67384">
        <ele>302.4</ele>
        <time>2022-04-25T09:10:21Z</time>
      </trkpt>
      <trkpt lat="44.55476" lon="2.67378">
        <ele>302.4</ele>
        <time>2022-04-25T09:10:26Z</time>
      </trkpt>
      <trkpt lat="44.55475" lon="2.6737">
        <ele>302.8</ele>
        <time>2022-04-25T09:10:34Z</time>
      </trkpt>
      <trkpt lat="44.55474" lon="2.67368">
        <ele>303.4</ele>
        <time>2022-04-25T09:10:38Z</time>
      </trkpt>
      <trkpt lat="44.55469" lon="2.67359">
        <ele>303.4</ele>
        <time>2022-04-25T09:10:51Z</time>
      </trkpt>
      <trkpt lat="44.55469" lon="2.67358">
        <ele>303.4</ele>
        <time>2022-04-25T09:10:52Z</time>
      </trkpt>
      <trkpt lat="44.5547" lon="2.67347">
        <ele>303.6</ele>
        <time>2022-04-25T09:11:00Z</time>
      </trkpt>
      <trkpt lat="44.5547" lon="2.67344">
        <ele>303.6</ele>
        <time>2022-04-25T09:11:02Z</time>
      </trkpt>
      <trkpt lat="44.55465" lon="2.67327">
        <ele>302.8</ele>
        <time>2022-04-25T09:11:17Z</time>
      </trkpt>
      <trkpt lat="44.55462" lon="2.67327">
        <ele>302.8</ele>
        <time>2022-04-25T09:11:29Z</time>
      </trkpt>
      <trkpt lat="44.55459" lon="2.67323">
        <ele>303</ele>
        <time>2022-04-25T09:11:50Z</time>
      </trkpt>
      <trkpt lat="44.55453" lon="2.67315">
        <ele>303.6</ele>
        <time>2022-04-25T09:12:04Z</time>
      </trkpt>
      <trkpt lat="44.5545" lon="2.67311">
        <ele>304.4</ele>
        <time>2022-04-25T09:12:19Z</time>
      </trkpt>
      <trkpt lat="44.55449" lon="2.67313">
        <ele>304.4</ele>
        <time>2022-04-25T09:12:21Z</time>
      </trkpt>
      <trkpt lat="44.55445" lon="2.67304">
        <ele>305.2</ele>
        <time>2022-04-25T09:12:33Z</time>
      </trkpt>
      <trkpt lat="44.55445" lon="2.67302">
        <ele>305.4</ele>
        <time>2022-04-25T09:12:34Z</time>
      </trkpt>
      <trkpt lat="44.55444" lon="2.67301">
        <ele>305.6</ele>
        <time>2022-04-25T09:12:35Z</time>
      </trkpt>
      <trkpt lat="44.55441" lon="2.67296">
        <ele>306.4</ele>
        <time>2022-04-25T09:12:39Z</time>
      </trkpt>
      <trkpt lat="44.55441" lon="2.67295">
        <ele>306.6</ele>
        <time>2022-04-25T09:12:41Z</time>
      </trkpt>
      <trkpt lat="44.55439" lon="2.67294">
        <ele>306.6</ele>
        <time>2022-04-25T09:12:43Z</time>
      </trkpt>
      <trkpt lat="44.55438" lon="2.67292">
        <ele>307</ele>
        <time>2022-04-25T09:12:46Z</time>
      </trkpt>
      <trkpt lat="44.55437" lon="2.67291">
        <ele>307.2</ele>
        <time>2022-04-25T09:12:48Z</time>
      </trkpt>
      <trkpt lat="44.55436" lon="2.67292">
        <ele>307.4</ele>
        <time>2022-04-25T09:12:50Z</time>
      </trkpt>
      <trkpt lat="44.55434" lon="2.67292">
        <ele>307.6</ele>
        <time>2022-04-25T09:12:52Z</time>
      </trkpt>
      <trkpt lat="44.55433" lon="2.67292">
        <ele>307.6</ele>
        <time>2022-04-25T09:12:53Z</time>
      </trkpt>
      <trkpt lat="44.55433" lon="2.67292">
        <ele>308</ele>
        <time>2022-04-25T09:12:54Z</time>
      </trkpt>
      <trkpt lat="44.55429" lon="2.67291">
        <ele>308.8</ele>
        <time>2022-04-25T09:13:00Z</time>
      </trkpt>
      <trkpt lat="44.55428" lon="2.6729">
        <ele>309</ele>
        <time>2022-04-25T09:13:02Z</time>
      </trkpt>
      <trkpt lat="44.55425" lon="2.67286">
        <ele>309.4</ele>
        <time>2022-04-25T09:13:07Z</time>
      </trkpt>
      <trkpt lat="44.55424" lon="2.67284">
        <ele>309.8</ele>
        <time>2022-04-25T09:13:10Z</time>
      </trkpt>
      <trkpt lat="44.55424" lon="2.67277">
        <ele>310.2</ele>
        <time>2022-04-25T09:13:16Z</time>
      </trkpt>
      <trkpt lat="44.55425" lon="2.67268">
        <ele>310.8</ele>
        <time>2022-04-25T09:13:25Z</time>
      </trkpt>
      <trkpt lat="44.55426" lon="2.67265">
        <ele>311.4</ele>
        <time>2022-04-25T09:13:29Z</time>
      </trkpt>
      <trkpt lat="44.55426" lon="2.67264">
        <ele>311.4</ele>
        <time>2022-04-25T09:13:30Z</time>
      </trkpt>
      <trkpt lat="44.55423" lon="2.67255">
        <ele>311.6</ele>
        <time>2022-04-25T09:13:44Z</time>
      </trkpt>
      <trkpt lat="44.55424" lon="2.67252">
        <ele>311.6</ele>
        <time>2022-04-25T09:14:01Z</time>
      </trkpt>
      <trkpt lat="44.55424" lon="2.67252">
        <ele>311.8</ele>
        <time>2022-04-25T09:14:19Z</time>
      </trkpt>
      <trkpt lat="44.55425" lon="2.67248">
        <ele>311.4</ele>
        <time>2022-04-25T09:14:28Z</time>
      </trkpt>
      <trkpt lat="44.55426" lon="2.67242">
        <ele>311.4</ele>
        <time>2022-04-25T09:14:38Z</time>
      </trkpt>
      <trkpt lat="44.55426" lon="2.67236">
        <ele>310.4</ele>
        <time>2022-04-25T09:14:51Z</time>
      </trkpt>
      <trkpt lat="44.55428" lon="2.67233">
        <ele>309.8</ele>
        <time>2022-04-25T09:15:01Z</time>
      </trkpt>
      <trkpt lat="44.55428" lon="2.67228">
        <ele>309.2</ele>
        <time>2022-04-25T09:15:05Z</time>
      </trkpt>
      <trkpt lat="44.5543" lon="2.67222">
        <ele>308.6</ele>
        <time>2022-04-25T09:15:10Z</time>
      </trkpt>
      <trkpt lat="44.55431" lon="2.67221">
        <ele>308.6</ele>
        <time>2022-04-25T09:15:11Z</time>
      </trkpt>
      <trkpt lat="44.55431" lon="2.67218">
        <ele>307.8</ele>
        <time>2022-04-25T09:15:17Z</time>
      </trkpt>
      <trkpt lat="44.55428" lon="2.67212">
        <ele>307.6</ele>
        <time>2022-04-25T09:15:30Z</time>
      </trkpt>
      <trkpt lat="44.55428" lon="2.67211">
        <ele>307.6</ele>
        <time>2022-04-25T09:15:31Z</time>
      </trkpt>
      <trkpt lat="44.55429" lon="2.67205">
        <ele>307.8</ele>
        <time>2022-04-25T09:15:46Z</time>
      </trkpt>
      <trkpt lat="44.55437" lon="2.67199">
        <ele>307.8</ele>
        <time>2022-04-25T09:16:00Z</time>
      </trkpt>
      <trkpt lat="44.55439" lon="2.67198">
        <ele>307.8</ele>
        <time>2022-04-25T09:16:03Z</time>
      </trkpt>
      <trkpt lat="44.55441" lon="2.67198">
        <ele>308</ele>
        <time>2022-04-25T09:16:05Z</time>
      </trkpt>
      <trkpt lat="44.55443" lon="2.67197">
        <ele>308</ele>
        <time>2022-04-25T09:16:08Z</time>
      </trkpt>
      <trkpt lat="44.55449" lon="2.67194">
        <ele>308.2</ele>
        <time>2022-04-25T09:16:16Z</time>
      </trkpt>
      <trkpt lat="44.55451" lon="2.67193">
        <ele>308.4</ele>
        <time>2022-04-25T09:16:18Z</time>
      </trkpt>
      <trkpt lat="44.55456" lon="2.67193">
        <ele>308.4</ele>
        <time>2022-04-25T09:16:24Z</time>
      </trkpt>
      <trkpt lat="44.55458" lon="2.67192">
        <ele>308.4</ele>
        <time>2022-04-25T09:16:26Z</time>
      </trkpt>
      <trkpt lat="44.55459" lon="2.67192">
        <ele>308.4</ele>
        <time>2022-04-25T09:16:28Z</time>
      </trkpt>
      <trkpt lat="44.5546" lon="2.67194">
        <ele>308.4</ele>
        <time>2022-04-25T09:16:32Z</time>
      </trkpt>
      <trkpt lat="44.55461" lon="2.67195">
        <ele>308.8</ele>
        <time>2022-04-25T09:16:35Z</time>
      </trkpt>
      <trkpt lat="44.55461" lon="2.67195">
        <ele>308.2</ele>
        <time>2022-04-25T09:17:40Z</time>
      </trkpt>
      <trkpt lat="44.55458" lon="2.67209">
        <ele>308.2</ele>
        <time>2022-04-25T09:17:45Z</time>
      </trkpt>
      <trkpt lat="44.55461" lon="2.67204">
        <ele>308.4</ele>
        <time>2022-04-25T09:17:53Z</time>
      </trkpt>
      <trkpt lat="44.55478" lon="2.67193">
        <ele>308.6</ele>
        <time>2022-04-25T09:18:02Z</time>
      </trkpt>
      <trkpt lat="44.55479" lon="2.67191">
        <ele>308.6</ele>
        <time>2022-04-25T09:18:03Z</time>
      </trkpt>
      <trkpt lat="44.5548" lon="2.67181">
        <ele>309.2</ele>
        <time>2022-04-25T09:18:16Z</time>
      </trkpt>
      <trkpt lat="44.55486" lon="2.67176">
        <ele>309.4</ele>
        <time>2022-04-25T09:18:21Z</time>
      </trkpt>
      <trkpt lat="44.55491" lon="2.67167">
        <ele>309.4</ele>
        <time>2022-04-25T09:18:29Z</time>
      </trkpt>
      <trkpt lat="44.55502" lon="2.67169">
        <ele>309.6</ele>
        <time>2022-04-25T09:18:36Z</time>
      </trkpt>
      <trkpt lat="44.55504" lon="2.67168">
        <ele>309.6</ele>
        <time>2022-04-25T09:18:39Z</time>
      </trkpt>
      <trkpt lat="44.55507" lon="2.67168">
        <ele>309.6</ele>
        <time>2022-04-25T09:18:42Z</time>
      </trkpt>
      <trkpt lat="44.5551" lon="2.67168">
        <ele>309.8</ele>
        <time>2022-04-25T09:18:46Z</time>
      </trkpt>
      <trkpt lat="44.55509" lon="2.6717">
        <ele>310.2</ele>
        <time>2022-04-25T09:18:54Z</time>
      </trkpt>
      <trkpt lat="44.55502" lon="2.67168">
        <ele>309.8</ele>
        <time>2022-04-25T09:19:05Z</time>
      </trkpt>
      <trkpt lat="44.55497" lon="2.67173">
        <ele>309.6</ele>
        <time>2022-04-25T09:19:12Z</time>
      </trkpt>
      <trkpt lat="44.55495" lon="2.67174">
        <ele>309.6</ele>
        <time>2022-04-25T09:19:15Z</time>
      </trkpt>
      <trkpt lat="44.55495" lon="2.67173">
        <ele>309.8</ele>
        <time>2022-04-25T09:19:19Z</time>
      </trkpt>
      <trkpt lat="44.5549" lon="2.67171">
        <ele>309.6</ele>
        <time>2022-04-25T09:19:31Z</time>
      </trkpt>
      <trkpt lat="44.55473" lon="2.67177">
        <ele>309.2</ele>
        <time>2022-04-25T09:19:46Z</time>
      </trkpt>
      <trkpt lat="44.55472" lon="2.67182">
        <ele>308.8</ele>
        <time>2022-04-25T09:19:49Z</time>
      </trkpt>
      <trkpt lat="44.55464" lon="2.67193">
        <ele>308.8</ele>
        <time>2022-04-25T09:19:57Z</time>
      </trkpt>
      <trkpt lat="44.55457" lon="2.67205">
        <ele>308.6</ele>
        <time>2022-04-25T09:20:12Z</time>
      </trkpt>
      <trkpt lat="44.55449" lon="2.67201">
        <ele>308</ele>
        <time>2022-04-25T09:20:29Z</time>
      </trkpt>
      <trkpt lat="44.55445" lon="2.672">
        <ele>308.2</ele>
        <time>2022-04-25T09:20:33Z</time>
      </trkpt>
      <trkpt lat="44.55441" lon="2.672">
        <ele>308.2</ele>
        <time>2022-04-25T09:20:39Z</time>
      </trkpt>
      <trkpt lat="44.55435" lon="2.672">
        <ele>308</ele>
        <time>2022-04-25T09:20:44Z</time>
      </trkpt>
      <trkpt lat="44.55432" lon="2.672">
        <ele>307.8</ele>
        <time>2022-04-25T09:20:46Z</time>
      </trkpt>
      <trkpt lat="44.55426" lon="2.67199">
        <ele>308</ele>
        <time>2022-04-25T09:20:59Z</time>
      </trkpt>
      <trkpt lat="44.55414" lon="2.67236">
        <ele>308</ele>
        <time>2022-04-25T09:22:43Z</time>
      </trkpt>
      <trkpt lat="44.55412" lon="2.67231">
        <ele>308</ele>
        <time>2022-04-25T09:22:50Z</time>
      </trkpt>
      <trkpt lat="44.5541" lon="2.67229">
        <ele>308</ele>
        <time>2022-04-25T09:22:52Z</time>
      </trkpt>
      <trkpt lat="44.55409" lon="2.67228">
        <ele>308</ele>
        <time>2022-04-25T09:22:53Z</time>
      </trkpt>
      <trkpt lat="44.55409" lon="2.67225">
        <ele>308</ele>
        <time>2022-04-25T09:22:55Z</time>
      </trkpt>
      <trkpt lat="44.55407" lon="2.67221">
        <ele>308.4</ele>
        <time>2022-04-25T09:23:00Z</time>
      </trkpt>
      <trkpt lat="44.55404" lon="2.67221">
        <ele>308.4</ele>
        <time>2022-04-25T09:23:05Z</time>
      </trkpt>
      <trkpt lat="44.554" lon="2.6722">
        <ele>308.6</ele>
        <time>2022-04-25T09:23:09Z</time>
      </trkpt>
      <trkpt lat="44.55408" lon="2.67216">
        <ele>308.4</ele>
        <time>2022-04-25T09:23:18Z</time>
      </trkpt>
      <trkpt lat="44.55397" lon="2.67212">
        <ele>307.8</ele>
        <time>2022-04-25T09:23:32Z</time>
      </trkpt>
      <trkpt lat="44.55392" lon="2.67212">
        <ele>307.8</ele>
        <time>2022-04-25T09:23:37Z</time>
      </trkpt>
      <trkpt lat="44.55389" lon="2.67211">
        <ele>307.8</ele>
        <time>2022-04-25T09:23:39Z</time>
      </trkpt>
      <trkpt lat="44.55383" lon="2.67212">
        <ele>307.6</ele>
        <time>2022-04-25T09:23:45Z</time>
      </trkpt>
      <trkpt lat="44.55383" lon="2.67211">
        <ele>307.6</ele>
        <time>2022-04-25T09:23:46Z</time>
      </trkpt>
      <trkpt lat="44.5538" lon="2.6721">
        <ele>307.8</ele>
        <time>2022-04-25T09:23:56Z</time>
      </trkpt>
      <trkpt lat="44.55371" lon="2.67209">
        <ele>307.8</ele>
        <time>2022-04-25T09:24:09Z</time>
      </trkpt>
      <trkpt lat="44.55369" lon="2.67208">
        <ele>307.6</ele>
        <time>2022-04-25T09:24:11Z</time>
      </trkpt>
      <trkpt lat="44.55368" lon="2.67209">
        <ele>307.4</ele>
        <time>2022-04-25T09:24:14Z</time>
      </trkpt>
      <trkpt lat="44.55364" lon="2.67217">
        <ele>307</ele>
        <time>2022-04-25T09:24:19Z</time>
      </trkpt>
      <trkpt lat="44.55363" lon="2.67217">
        <ele>307</ele>
        <time>2022-04-25T09:24:21Z</time>
      </trkpt>
      <trkpt lat="44.55363" lon="2.67214">
        <ele>306.8</ele>
        <time>2022-04-25T09:24:24Z</time>
      </trkpt>
      <trkpt lat="44.55362" lon="2.67214">
        <ele>306.8</ele>
        <time>2022-04-25T09:24:26Z</time>
      </trkpt>
      <trkpt lat="44.55359" lon="2.67209">
        <ele>306.8</ele>
        <time>2022-04-25T09:24:41Z</time>
      </trkpt>
      <trkpt lat="44.55355" lon="2.67208">
        <ele>306.4</ele>
        <time>2022-04-25T09:24:56Z</time>
      </trkpt>
      <trkpt lat="44.55355" lon="2.67203">
        <ele>306.4</ele>
        <time>2022-04-25T09:25:11Z</time>
      </trkpt>
      <trkpt lat="44.55357" lon="2.67204">
        <ele>306.4</ele>
        <time>2022-04-25T09:25:32Z</time>
      </trkpt>
      <trkpt lat="44.55357" lon="2.67204">
        <ele>306.6</ele>
        <time>2022-04-25T09:25:46Z</time>
      </trkpt>
      <trkpt lat="44.55355" lon="2.672">
        <ele>306.6</ele>
        <time>2022-04-25T09:26:03Z</time>
      </trkpt>
      <trkpt lat="44.55355" lon="2.6721">
        <ele>306.6</ele>
        <time>2022-04-25T09:26:08Z</time>
      </trkpt>
      <trkpt lat="44.55356" lon="2.67214">
        <ele>306.6</ele>
        <time>2022-04-25T09:26:10Z</time>
      </trkpt>
      <trkpt lat="44.55357" lon="2.67214">
        <ele>306.6</ele>
        <time>2022-04-25T09:26:11Z</time>
      </trkpt>
      <trkpt lat="44.55353" lon="2.67213">
        <ele>306.8</ele>
        <time>2022-04-25T09:26:17Z</time>
      </trkpt>
      <trkpt lat="44.55348" lon="2.6721">
        <ele>307</ele>
        <time>2022-04-25T09:26:23Z</time>
      </trkpt>
      <trkpt lat="44.55345" lon="2.67207">
        <ele>307</ele>
        <time>2022-04-25T09:26:27Z</time>
      </trkpt>
      <trkpt lat="44.55343" lon="2.67206">
        <ele>307.2</ele>
        <time>2022-04-25T09:26:31Z</time>
      </trkpt>
      <trkpt lat="44.55342" lon="2.67205">
        <ele>307.2</ele>
        <time>2022-04-25T09:26:33Z</time>
      </trkpt>
      <trkpt lat="44.55342" lon="2.67204">
        <ele>307.4</ele>
        <time>2022-04-25T09:26:38Z</time>
      </trkpt>
      <trkpt lat="44.55342" lon="2.672">
        <ele>307.2</ele>
        <time>2022-04-25T09:26:52Z</time>
      </trkpt>
      <trkpt lat="44.5534" lon="2.67194">
        <ele>307.8</ele>
        <time>2022-04-25T09:26:56Z</time>
      </trkpt>
      <trkpt lat="44.55338" lon="2.6719">
        <ele>308</ele>
        <time>2022-04-25T09:27:00Z</time>
      </trkpt>
      <trkpt lat="44.55338" lon="2.67189">
        <ele>308.4</ele>
        <time>2022-04-25T09:27:02Z</time>
      </trkpt>
      <trkpt lat="44.55333" lon="2.67186">
        <ele>308.8</ele>
        <time>2022-04-25T09:27:09Z</time>
      </trkpt>
      <trkpt lat="44.55331" lon="2.67186">
        <ele>309</ele>
        <time>2022-04-25T09:27:11Z</time>
      </trkpt>
      <trkpt lat="44.55329" lon="2.67186">
        <ele>309.2</ele>
        <time>2022-04-25T09:27:14Z</time>
      </trkpt>
      <trkpt lat="44.55328" lon="2.67186">
        <ele>309.2</ele>
        <time>2022-04-25T09:27:15Z</time>
      </trkpt>
      <trkpt lat="44.55325" lon="2.67188">
        <ele>309.4</ele>
        <time>2022-04-25T09:27:18Z</time>
      </trkpt>
      <trkpt lat="44.5532" lon="2.67192">
        <ele>309.6</ele>
        <time>2022-04-25T09:27:24Z</time>
      </trkpt>
      <trkpt lat="44.55319" lon="2.67194">
        <ele>310</ele>
        <time>2022-04-25T09:27:26Z</time>
      </trkpt>
      <trkpt lat="44.55317" lon="2.67196">
        <ele>310.4</ele>
        <time>2022-04-25T09:27:33Z</time>
      </trkpt>
      <trkpt lat="44.55315" lon="2.67192">
        <ele>309.8</ele>
        <time>2022-04-25T09:27:45Z</time>
      </trkpt>
      <trkpt lat="44.55314" lon="2.6719">
        <ele>309.8</ele>
        <time>2022-04-25T09:27:54Z</time>
      </trkpt>
      <trkpt lat="44.55308" lon="2.67193">
        <ele>310</ele>
        <time>2022-04-25T09:28:02Z</time>
      </trkpt>
      <trkpt lat="44.55292" lon="2.67197">
        <ele>310</ele>
        <time>2022-04-25T09:28:17Z</time>
      </trkpt>
      <trkpt lat="44.55276" lon="2.672">
        <ele>310.4</ele>
        <time>2022-04-25T09:28:32Z</time>
      </trkpt>
      <trkpt lat="44.55268" lon="2.67202">
        <ele>311</ele>
        <time>2022-04-25T09:28:41Z</time>
      </trkpt>
      <trkpt lat="44.55259" lon="2.67205">
        <ele>311</ele>
        <time>2022-04-25T09:28:48Z</time>
      </trkpt>
      <trkpt lat="44.55252" lon="2.67206">
        <ele>311.2</ele>
        <time>2022-04-25T09:28:56Z</time>
      </trkpt>
      <trkpt lat="44.55251" lon="2.67206">
        <ele>311.2</ele>
        <time>2022-04-25T09:29:00Z</time>
      </trkpt>
      <trkpt lat="44.55251" lon="2.67203">
        <ele>311.4</ele>
        <time>2022-04-25T09:29:09Z</time>
      </trkpt>
      <trkpt lat="44.55251" lon="2.67202">
        <ele>312</ele>
        <time>2022-04-25T09:29:14Z</time>
      </trkpt>
      <trkpt lat="44.55252" lon="2.67203">
        <ele>312</ele>
        <time>2022-04-25T09:29:20Z</time>
      </trkpt>
      <trkpt lat="44.55249" lon="2.67209">
        <ele>311.2</ele>
        <time>2022-04-25T09:29:33Z</time>
      </trkpt>
      <trkpt lat="44.55248" lon="2.67212">
        <ele>311.4</ele>
        <time>2022-04-25T09:29:36Z</time>
      </trkpt>
      <trkpt lat="44.55247" lon="2.67214">
        <ele>311.4</ele>
        <time>2022-04-25T09:29:38Z</time>
      </trkpt>
      <trkpt lat="44.55246" lon="2.67215">
        <ele>311.4</ele>
        <time>2022-04-25T09:29:40Z</time>
      </trkpt>
      <trkpt lat="44.55246" lon="2.67219">
        <ele>311.6</ele>
        <time>2022-04-25T09:29:45Z</time>
      </trkpt>
      <trkpt lat="44.55248" lon="2.67219">
        <ele>312.2</ele>
        <time>2022-04-25T09:29:58Z</time>
      </trkpt>
      <trkpt lat="44.55249" lon="2.67212">
        <ele>311.6</ele>
        <time>2022-04-25T09:30:04Z</time>
      </trkpt>
      <trkpt lat="44.5525" lon="2.6721">
        <ele>311.4</ele>
        <time>2022-04-25T09:30:06Z</time>
      </trkpt>
      <trkpt lat="44.55251" lon="2.67208">
        <ele>311.6</ele>
        <time>2022-04-25T09:30:08Z</time>
      </trkpt>
      <trkpt lat="44.55252" lon="2.67206">
        <ele>311.4</ele>
        <time>2022-04-25T09:30:11Z</time>
      </trkpt>
      <trkpt lat="44.55254" lon="2.67206">
        <ele>311.4</ele>
        <time>2022-04-25T09:30:18Z</time>
      </trkpt>
      <trkpt lat="44.55255" lon="2.67204">
        <ele>311.2</ele>
        <time>2022-04-25T09:30:33Z</time>
      </trkpt>
      <trkpt lat="44.55255" lon="2.67203">
        <ele>312</ele>
        <time>2022-04-25T09:30:49Z</time>
      </trkpt>
      <trkpt lat="44.55254" lon="2.67203">
        <ele>311</ele>
        <time>2022-04-25T09:31:03Z</time>
      </trkpt>
      <trkpt lat="44.55254" lon="2.67202">
        <ele>311.2</ele>
        <time>2022-04-25T09:31:17Z</time>
      </trkpt>
      <trkpt lat="44.55253" lon="2.67203">
        <ele>311.6</ele>
        <time>2022-04-25T09:31:23Z</time>
      </trkpt>
      <trkpt lat="44.55254" lon="2.67203">
        <ele>311.2</ele>
        <time>2022-04-25T09:31:33Z</time>
      </trkpt>
      <trkpt lat="44.5526" lon="2.67204">
        <ele>311.2</ele>
        <time>2022-04-25T09:31:43Z</time>
      </trkpt>
      <trkpt lat="44.55259" lon="2.67204">
        <ele>311</ele>
        <time>2022-04-25T09:31:55Z</time>
      </trkpt>
      <trkpt lat="44.5526" lon="2.67204">
        <ele>311</ele>
        <time>2022-04-25T09:32:12Z</time>
      </trkpt>
      <trkpt lat="44.55262" lon="2.67203">
        <ele>311</ele>
        <time>2022-04-25T09:32:25Z</time>
      </trkpt>
      <trkpt lat="44.55268" lon="2.67203">
        <ele>311</ele>
        <time>2022-04-25T09:32:34Z</time>
      </trkpt>
      <trkpt lat="44.5527" lon="2.67203">
        <ele>310.8</ele>
        <time>2022-04-25T09:32:37Z</time>
      </trkpt>
      <trkpt lat="44.55275" lon="2.67202">
        <ele>310.4</ele>
        <time>2022-04-25T09:32:43Z</time>
      </trkpt>
      <trkpt lat="44.55277" lon="2.67202">
        <ele>310.4</ele>
        <time>2022-04-25T09:32:45Z</time>
      </trkpt>
      <trkpt lat="44.55283" lon="2.672">
        <ele>310.6</ele>
        <time>2022-04-25T09:32:51Z</time>
      </trkpt>
      <trkpt lat="44.55294" lon="2.67197">
        <ele>310.4</ele>
        <time>2022-04-25T09:33:03Z</time>
      </trkpt>
      <trkpt lat="44.55307" lon="2.67192">
        <ele>309.8</ele>
        <time>2022-04-25T09:33:16Z</time>
      </trkpt>
      <trkpt lat="44.55318" lon="2.67191">
        <ele>309.6</ele>
        <time>2022-04-25T09:33:27Z</time>
      </trkpt>
      <trkpt lat="44.55319" lon="2.67191">
        <ele>309.6</ele>
        <time>2022-04-25T09:33:28Z</time>
      </trkpt>
      <trkpt lat="44.5533" lon="2.67189">
        <ele>308.8</ele>
        <time>2022-04-25T09:33:39Z</time>
      </trkpt>
      <trkpt lat="44.55337" lon="2.67189">
        <ele>308.2</ele>
        <time>2022-04-25T09:33:45Z</time>
      </trkpt>
      <trkpt lat="44.55342" lon="2.67189">
        <ele>307.6</ele>
        <time>2022-04-25T09:33:51Z</time>
      </trkpt>
      <trkpt lat="44.55344" lon="2.67189">
        <ele>307.4</ele>
        <time>2022-04-25T09:33:54Z</time>
      </trkpt>
      <trkpt lat="44.55344" lon="2.67187">
        <ele>307.2</ele>
        <time>2022-04-25T09:33:57Z</time>
      </trkpt>
      <trkpt lat="44.55346" lon="2.6719">
        <ele>306.8</ele>
        <time>2022-04-25T09:34:08Z</time>
      </trkpt>
      <trkpt lat="44.55344" lon="2.67201">
        <ele>307.2</ele>
        <time>2022-04-25T09:34:16Z</time>
      </trkpt>
      <trkpt lat="44.55342" lon="2.67209">
        <ele>307</ele>
        <time>2022-04-25T09:34:23Z</time>
      </trkpt>
      <trkpt lat="44.55342" lon="2.67209">
        <ele>307</ele>
        <time>2022-04-25T09:34:26Z</time>
      </trkpt>
      <trkpt lat="44.55343" lon="2.67209">
        <ele>307</ele>
        <time>2022-04-25T09:34:37Z</time>
      </trkpt>
      <trkpt lat="44.5534" lon="2.67217">
        <ele>306.8</ele>
        <time>2022-04-25T09:34:46Z</time>
      </trkpt>
      <trkpt lat="44.5534" lon="2.67217">
        <ele>306.6</ele>
        <time>2022-04-25T09:34:51Z</time>
      </trkpt>
      <trkpt lat="44.5534" lon="2.67217">
        <ele>306.6</ele>
        <time>2022-04-25T09:34:56Z</time>
      </trkpt>
      <trkpt lat="44.5534" lon="2.67216">
        <ele>306.6</ele>
        <time>2022-04-25T09:35:14Z</time>
      </trkpt>
      <trkpt lat="44.5534" lon="2.67217">
        <ele>306.6</ele>
        <time>2022-04-25T09:35:34Z</time>
      </trkpt>
      <trkpt lat="44.5534" lon="2.67216">
        <ele>306.8</ele>
        <time>2022-04-25T09:35:51Z</time>
      </trkpt>
      <trkpt lat="44.5534" lon="2.67217">
        <ele>306.8</ele>
        <time>2022-04-25T09:36:12Z</time>
      </trkpt>
      <trkpt lat="44.5534" lon="2.67217">
        <ele>306.8</ele>
        <time>2022-04-25T09:36:25Z</time>
      </trkpt>
      <trkpt lat="44.5534" lon="2.67217">
        <ele>306.8</ele>
        <time>2022-04-25T09:36:31Z</time>
      </trkpt>
      <trkpt lat="44.55343" lon="2.67222">
        <ele>306.8</ele>
        <time>2022-04-25T09:36:41Z</time>
      </trkpt>
      <trkpt lat="44.55343" lon="2.67225">
        <ele>306.8</ele>
        <time>2022-04-25T09:36:43Z</time>
      </trkpt>
      <trkpt lat="44.55342" lon="2.67239">
        <ele>306.8</ele>
        <time>2022-04-25T09:36:54Z</time>
      </trkpt>
      <trkpt lat="44.5534" lon="2.67255">
        <ele>306.2</ele>
        <time>2022-04-25T09:37:05Z</time>
      </trkpt>
      <trkpt lat="44.55341" lon="2.67271">
        <ele>305.8</ele>
        <time>2022-04-25T09:37:17Z</time>
      </trkpt>
      <trkpt lat="44.55338" lon="2.67287">
        <ele>305.8</ele>
        <time>2022-04-25T09:37:28Z</time>
      </trkpt>
      <trkpt lat="44.55338" lon="2.67292">
        <ele>305.6</ele>
        <time>2022-04-25T09:37:31Z</time>
      </trkpt>
      <trkpt lat="44.55336" lon="2.67306">
        <ele>305.4</ele>
        <time>2022-04-25T09:37:41Z</time>
      </trkpt>
      <trkpt lat="44.55335" lon="2.67325">
        <ele>305.2</ele>
        <time>2022-04-25T09:37:54Z</time>
      </trkpt>
      <trkpt lat="44.55332" lon="2.67347">
        <ele>305.2</ele>
        <time>2022-04-25T09:38:08Z</time>
      </trkpt>
      <trkpt lat="44.55331" lon="2.67368">
        <ele>305.2</ele>
        <time>2022-04-25T09:38:22Z</time>
      </trkpt>
      <trkpt lat="44.55328" lon="2.6739">
        <ele>305</ele>
        <time>2022-04-25T09:38:36Z</time>
      </trkpt>
      <trkpt lat="44.55318" lon="2.67406">
        <ele>305</ele>
        <time>2022-04-25T09:38:50Z</time>
      </trkpt>
      <trkpt lat="44.55313" lon="2.67411">
        <ele>304.6</ele>
        <time>2022-04-25T09:38:56Z</time>
      </trkpt>
      <trkpt lat="44.55307" lon="2.67417">
        <ele>304.4</ele>
        <time>2022-04-25T09:39:03Z</time>
      </trkpt>
      <trkpt lat="44.55295" lon="2.67429">
        <ele>303.8</ele>
        <time>2022-04-25T09:39:18Z</time>
      </trkpt>
      <trkpt lat="44.55294" lon="2.67429">
        <ele>303.6</ele>
        <time>2022-04-25T09:39:20Z</time>
      </trkpt>
      <trkpt lat="44.5529" lon="2.67427">
        <ele>303.6</ele>
        <time>2022-04-25T09:39:26Z</time>
      </trkpt>
      <trkpt lat="44.55289" lon="2.67426">
        <ele>303.6</ele>
        <time>2022-04-25T09:39:35Z</time>
      </trkpt>
      <trkpt lat="44.5529" lon="2.67426">
        <ele>303.4</ele>
        <time>2022-04-25T09:39:48Z</time>
      </trkpt>
      <trkpt lat="44.55292" lon="2.67423">
        <ele>303.2</ele>
        <time>2022-04-25T09:40:01Z</time>
      </trkpt>
      <trkpt lat="44.55293" lon="2.67425">
        <ele>304.2</ele>
        <time>2022-04-25T09:40:15Z</time>
      </trkpt>
      <trkpt lat="44.55291" lon="2.67423">
        <ele>304</ele>
        <time>2022-04-25T09:40:30Z</time>
      </trkpt>
      <trkpt lat="44.5529" lon="2.67422">
        <ele>302.8</ele>
        <time>2022-04-25T09:40:48Z</time>
      </trkpt>
      <trkpt lat="44.55291" lon="2.67422">
        <ele>302.6</ele>
        <time>2022-04-25T09:41:06Z</time>
      </trkpt>
      <trkpt lat="44.55288" lon="2.67422">
        <ele>302.6</ele>
        <time>2022-04-25T09:41:24Z</time>
      </trkpt>
      <trkpt lat="44.55288" lon="2.67421">
        <ele>302.6</ele>
        <time>2022-04-25T09:41:40Z</time>
      </trkpt>
      <trkpt lat="44.55287" lon="2.67421">
        <ele>302.6</ele>
        <time>2022-04-25T09:41:41Z</time>
      </trkpt>
      <trkpt lat="44.55287" lon="2.67421">
        <ele>302.6</ele>
        <time>2022-04-25T09:41:45Z</time>
      </trkpt>
      <trkpt lat="44.55289" lon="2.6742">
        <ele>302.8</ele>
        <time>2022-04-25T09:42:03Z</time>
      </trkpt>
      <trkpt lat="44.55289" lon="2.67419">
        <ele>302.6</ele>
        <time>2022-04-25T09:42:18Z</time>
      </trkpt>
      <trkpt lat="44.55286" lon="2.67417">
        <ele>302.4</ele>
        <time>2022-04-25T09:42:40Z</time>
      </trkpt>
      <trkpt lat="44.55286" lon="2.67419">
        <ele>302.4</ele>
        <time>2022-04-25T09:42:56Z</time>
      </trkpt>
      <trkpt lat="44.55286" lon="2.67419">
        <ele>302.4</ele>
        <time>2022-04-25T09:42:57Z</time>
      </trkpt>
      <trkpt lat="44.55292" lon="2.67421">
        <ele>302.4</ele>
        <time>2022-04-25T09:43:14Z</time>
      </trkpt>
      <trkpt lat="44.55293" lon="2.67423">
        <ele>302.4</ele>
        <time>2022-04-25T09:43:29Z</time>
      </trkpt>
      <trkpt lat="44.55291" lon="2.67421">
        <ele>302.4</ele>
        <time>2022-04-25T09:43:45Z</time>
      </trkpt>
      <trkpt lat="44.55292" lon="2.67422">
        <ele>302.4</ele>
        <time>2022-04-25T09:44:04Z</time>
      </trkpt>
      <trkpt lat="44.55294" lon="2.67427">
        <ele>302.4</ele>
        <time>2022-04-25T09:44:11Z</time>
      </trkpt>
      <trkpt lat="44.55295" lon="2.67427">
        <ele>302.4</ele>
        <time>2022-04-25T09:44:15Z</time>
      </trkpt>
      <trkpt lat="44.55296" lon="2.67425">
        <ele>302.4</ele>
        <time>2022-04-25T09:44:17Z</time>
      </trkpt>
      <trkpt lat="44.55299" lon="2.67423">
        <ele>304.2</ele>
        <time>2022-04-25T09:44:19Z</time>
      </trkpt>
      <trkpt lat="44.55301" lon="2.67422">
        <ele>304.2</ele>
        <time>2022-04-25T09:44:22Z</time>
      </trkpt>
      <trkpt lat="44.5531" lon="2.67411">
        <ele>305.2</ele>
        <time>2022-04-25T09:44:28Z</time>
      </trkpt>
      <trkpt lat="44.55313" lon="2.67408">
        <ele>305.4</ele>
        <time>2022-04-25T09:44:30Z</time>
      </trkpt>
      <trkpt lat="44.55317" lon="2.67406">
        <ele>305.8</ele>
        <time>2022-04-25T09:44:34Z</time>
      </trkpt>
      <trkpt lat="44.55318" lon="2.67404">
        <ele>305.6</ele>
        <time>2022-04-25T09:44:36Z</time>
      </trkpt>
      <trkpt lat="44.55321" lon="2.67398">
        <ele>305.8</ele>
        <time>2022-04-25T09:44:43Z</time>
      </trkpt>
      <trkpt lat="44.55325" lon="2.67399">
        <ele>305.8</ele>
        <time>2022-04-25T09:44:54Z</time>
      </trkpt>
      <trkpt lat="44.55326" lon="2.67403">
        <ele>306.2</ele>
        <time>2022-04-25T09:44:58Z</time>
      </trkpt>
      <trkpt lat="44.5532" lon="2.67413">
        <ele>306.8</ele>
        <time>2022-04-25T09:45:01Z</time>
      </trkpt>
      <trkpt lat="44.55305" lon="2.67431">
        <ele>307.2</ele>
        <time>2022-04-25T09:45:04Z</time>
      </trkpt>
      <trkpt lat="44.553" lon="2.67438">
        <ele>307.2</ele>
        <time>2022-04-25T09:45:05Z</time>
      </trkpt>
      <trkpt lat="44.55278" lon="2.67463">
        <ele>307.6</ele>
        <time>2022-04-25T09:45:08Z</time>
      </trkpt>
      <trkpt lat="44.5527" lon="2.67471">
        <ele>308</ele>
        <time>2022-04-25T09:45:09Z</time>
      </trkpt>
      <trkpt lat="44.55263" lon="2.6748">
        <ele>308.6</ele>
        <time>2022-04-25T09:45:10Z</time>
      </trkpt>
      <trkpt lat="44.55255" lon="2.6749">
        <ele>309.8</ele>
        <time>2022-04-25T09:45:11Z</time>
      </trkpt>
      <trkpt lat="44.5524" lon="2.67508">
        <ele>310.8</ele>
        <time>2022-04-25T09:45:13Z</time>
      </trkpt>
      <trkpt lat="44.55224" lon="2.67526">
        <ele>312.4</ele>
        <time>2022-04-25T09:45:15Z</time>
      </trkpt>
      <trkpt lat="44.55209" lon="2.67546">
        <ele>313</ele>
        <time>2022-04-25T09:45:17Z</time>
      </trkpt>
      <trkpt lat="44.55203" lon="2.67561">
        <ele>313.4</ele>
        <time>2022-04-25T09:45:18Z</time>
      </trkpt>
      <trkpt lat="44.55198" lon="2.67574">
        <ele>313.6</ele>
        <time>2022-04-25T09:45:19Z</time>
      </trkpt>
      <trkpt lat="44.5519" lon="2.67607">
        <ele>314.2</ele>
        <time>2022-04-25T09:45:21Z</time>
      </trkpt>
      <trkpt lat="44.55181" lon="2.6764">
        <ele>314.8</ele>
        <time>2022-04-25T09:45:23Z</time>
      </trkpt>
      <trkpt lat="44.55168" lon="2.67676">
        <ele>315.4</ele>
        <time>2022-04-25T09:45:25Z</time>
      </trkpt>
      <trkpt lat="44.5515" lon="2.67715">
        <ele>315.6</ele>
        <time>2022-04-25T09:45:27Z</time>
      </trkpt>
      <trkpt lat="44.5513" lon="2.67753">
        <ele>315.6</ele>
        <time>2022-04-25T09:45:29Z</time>
      </trkpt>
      <trkpt lat="44.55109" lon="2.67789">
        <ele>315.6</ele>
        <time>2022-04-25T09:45:31Z</time>
      </trkpt>
      <trkpt lat="44.55086" lon="2.67825">
        <ele>315.6</ele>
        <time>2022-04-25T09:45:33Z</time>
      </trkpt>
      <trkpt lat="44.55075" lon="2.67842">
        <ele>315.8</ele>
        <time>2022-04-25T09:45:34Z</time>
      </trkpt>
      <trkpt lat="44.55064" lon="2.67858">
        <ele>315.8</ele>
        <time>2022-04-25T09:45:35Z</time>
      </trkpt>
    </trkseg>
  </trk>
</gpx>